<?xml version="1.0" encoding="UTF-8" standalone="no" ?>
<gpx xmlns="http://www.topografix.com/GPX/1/1" xmlns:xsi="http://www.w3.org/2001/XMLSchema-instance" xsi:schemaLocation="http://www.topografix.com/GPX/1/1 http://www.topografix.com/GPX/1/1/gpx.xsd" version="1.1" creator="VisuGPX - https://www.visugpx.com">
  <metadata>
    <name>La Siagne_Pont de Rey au Pont des Tuves</name>
  </metadata>
  <wpt lat="43.64694" lon="6.77924">
    <ele>430.2</ele>
  </wpt>
  <wpt lat="43.6466" lon="6.78126">
    <ele>388.2</ele>
  </wpt>
  <trk>
    <name><![CDATA[La Siagne_Pont de Rey au Pont des Tuves_1]]></name>
    <trkseg>
      <trkpt lat="43.63942" lon="6.78316">
        <ele>431</ele>
        <time>2020-06-03T09:17:18+02:00</time>
      </trkpt>
      <trkpt lat="43.63946" lon="6.78328">
        <ele>431</ele>
        <time>2020-06-03T09:17:37+02:00</time>
      </trkpt>
      <trkpt lat="43.63947" lon="6.78341">
        <ele>431</ele>
        <time>2020-06-03T09:17:46+02:00</time>
      </trkpt>
      <trkpt lat="43.6395" lon="6.78353">
        <ele>431</ele>
        <time>2020-06-03T09:17:57+02:00</time>
      </trkpt>
      <trkpt lat="43.63952" lon="6.78365">
        <ele>431</ele>
        <time>2020-06-03T09:18:08+02:00</time>
      </trkpt>
      <trkpt lat="43.6395" lon="6.78378">
        <ele>431</ele>
        <time>2020-06-03T09:18:20+02:00</time>
      </trkpt>
      <trkpt lat="43.63954" lon="6.7839">
        <ele>431</ele>
        <time>2020-06-03T09:18:28+02:00</time>
      </trkpt>
      <trkpt lat="43.63956" lon="6.78403">
        <ele>431</ele>
        <time>2020-06-03T09:18:38+02:00</time>
      </trkpt>
      <trkpt lat="43.63956" lon="6.78417">
        <ele>431</ele>
        <time>2020-06-03T09:18:51+02:00</time>
      </trkpt>
      <trkpt lat="43.63955" lon="6.7843">
        <ele>431</ele>
        <time>2020-06-03T09:18:59+02:00</time>
      </trkpt>
      <trkpt lat="43.63958" lon="6.78441">
        <ele>431</ele>
        <time>2020-06-03T09:19:10+02:00</time>
      </trkpt>
      <trkpt lat="43.63963" lon="6.78452">
        <ele>431</ele>
        <time>2020-06-03T09:19:20+02:00</time>
      </trkpt>
      <trkpt lat="43.63968" lon="6.78463">
        <ele>431</ele>
        <time>2020-06-03T09:19:30+02:00</time>
      </trkpt>
      <trkpt lat="43.63967" lon="6.78476">
        <ele>430</ele>
        <time>2020-06-03T09:19:50+02:00</time>
      </trkpt>
      <trkpt lat="43.63966" lon="6.78489">
        <ele>430</ele>
        <time>2020-06-03T09:19:59+02:00</time>
      </trkpt>
      <trkpt lat="43.63965" lon="6.78502">
        <ele>430</ele>
        <time>2020-06-03T09:20:08+02:00</time>
      </trkpt>
      <trkpt lat="43.63963" lon="6.78516">
        <ele>430</ele>
        <time>2020-06-03T09:20:18+02:00</time>
      </trkpt>
      <trkpt lat="43.63962" lon="6.78529">
        <ele>430</ele>
        <time>2020-06-03T09:20:27+02:00</time>
      </trkpt>
      <trkpt lat="43.63963" lon="6.78541">
        <ele>430</ele>
        <time>2020-06-03T09:20:40+02:00</time>
      </trkpt>
      <trkpt lat="43.63965" lon="6.78554">
        <ele>430</ele>
        <time>2020-06-03T09:20:49+02:00</time>
      </trkpt>
      <trkpt lat="43.63965" lon="6.78566">
        <ele>430</ele>
        <time>2020-06-03T09:20:59+02:00</time>
      </trkpt>
      <trkpt lat="43.63964" lon="6.78579">
        <ele>430</ele>
        <time>2020-06-03T09:21:10+02:00</time>
      </trkpt>
      <trkpt lat="43.63965" lon="6.78593">
        <ele>430</ele>
        <time>2020-06-03T09:21:20+02:00</time>
      </trkpt>
      <trkpt lat="43.63966" lon="6.78606">
        <ele>430</ele>
        <time>2020-06-03T09:21:29+02:00</time>
      </trkpt>
      <trkpt lat="43.63964" lon="6.7862">
        <ele>430</ele>
        <time>2020-06-03T09:21:41+02:00</time>
      </trkpt>
      <trkpt lat="43.63965" lon="6.78632">
        <ele>430</ele>
        <time>2020-06-03T09:21:52+02:00</time>
      </trkpt>
      <trkpt lat="43.63968" lon="6.78644">
        <ele>430</ele>
        <time>2020-06-03T09:21:59+02:00</time>
      </trkpt>
      <trkpt lat="43.63971" lon="6.78657">
        <ele>430</ele>
        <time>2020-06-03T09:22:11+02:00</time>
      </trkpt>
      <trkpt lat="43.63966" lon="6.78674">
        <ele>430</ele>
        <time>2020-06-03T09:22:28+02:00</time>
      </trkpt>
      <trkpt lat="43.6397" lon="6.78685">
        <ele>430</ele>
        <time>2020-06-03T09:22:33+02:00</time>
      </trkpt>
      <trkpt lat="43.63974" lon="6.78696">
        <ele>430</ele>
        <time>2020-06-03T09:22:43+02:00</time>
      </trkpt>
      <trkpt lat="43.63975" lon="6.7871">
        <ele>430</ele>
        <time>2020-06-03T09:22:53+02:00</time>
      </trkpt>
      <trkpt lat="43.63979" lon="6.78722">
        <ele>430</ele>
        <time>2020-06-03T09:23:01+02:00</time>
      </trkpt>
      <trkpt lat="43.63979" lon="6.78736">
        <ele>430</ele>
        <time>2020-06-03T09:24:00+02:00</time>
      </trkpt>
      <trkpt lat="43.63982" lon="6.78748">
        <ele>430</ele>
        <time>2020-06-03T09:24:13+02:00</time>
      </trkpt>
      <trkpt lat="43.63991" lon="6.78751">
        <ele>429</ele>
        <time>2020-06-03T09:24:45+02:00</time>
      </trkpt>
      <trkpt lat="43.64001" lon="6.78752">
        <ele>429</ele>
        <time>2020-06-03T09:25:16+02:00</time>
      </trkpt>
      <trkpt lat="43.6401" lon="6.78746">
        <ele>429</ele>
        <time>2020-06-03T09:25:30+02:00</time>
      </trkpt>
      <trkpt lat="43.64019" lon="6.78744">
        <ele>429</ele>
        <time>2020-06-03T09:25:44+02:00</time>
      </trkpt>
      <trkpt lat="43.64029" lon="6.7874">
        <ele>429</ele>
        <time>2020-06-03T09:25:52+02:00</time>
      </trkpt>
      <trkpt lat="43.64031" lon="6.78752">
        <ele>428</ele>
        <time>2020-06-03T09:26:03+02:00</time>
      </trkpt>
      <trkpt lat="43.64025" lon="6.78763">
        <ele>428</ele>
        <time>2020-06-03T09:26:20+02:00</time>
      </trkpt>
      <trkpt lat="43.64021" lon="6.78774">
        <ele>428</ele>
        <time>2020-06-03T09:26:35+02:00</time>
      </trkpt>
      <trkpt lat="43.64018" lon="6.78786">
        <ele>428</ele>
        <time>2020-06-03T09:26:50+02:00</time>
      </trkpt>
      <trkpt lat="43.64018" lon="6.78799">
        <ele>427</ele>
        <time>2020-06-03T09:27:11+02:00</time>
      </trkpt>
      <trkpt lat="43.64025" lon="6.78789">
        <ele>427</ele>
        <time>2020-06-03T09:28:07+02:00</time>
      </trkpt>
      <trkpt lat="43.64028" lon="6.78778">
        <ele>426</ele>
        <time>2020-06-03T09:28:20+02:00</time>
      </trkpt>
      <trkpt lat="43.64034" lon="6.78768">
        <ele>426</ele>
        <time>2020-06-03T09:28:55+02:00</time>
      </trkpt>
      <trkpt lat="43.64043" lon="6.78767">
        <ele>426</ele>
        <time>2020-06-03T09:29:02+02:00</time>
      </trkpt>
      <trkpt lat="43.64052" lon="6.78762">
        <ele>425</ele>
        <time>2020-06-03T09:29:18+02:00</time>
      </trkpt>
      <trkpt lat="43.64061" lon="6.78758">
        <ele>425</ele>
        <time>2020-06-03T09:29:31+02:00</time>
      </trkpt>
      <trkpt lat="43.6407" lon="6.78757">
        <ele>425</ele>
        <time>2020-06-03T09:29:41+02:00</time>
      </trkpt>
      <trkpt lat="43.64079" lon="6.7876">
        <ele>425</ele>
        <time>2020-06-03T09:29:51+02:00</time>
      </trkpt>
      <trkpt lat="43.64077" lon="6.78773">
        <ele>424</ele>
        <time>2020-06-03T09:30:08+02:00</time>
      </trkpt>
      <trkpt lat="43.64086" lon="6.78777">
        <ele>424</ele>
        <time>2020-06-03T09:30:27+02:00</time>
      </trkpt>
      <trkpt lat="43.64095" lon="6.78779">
        <ele>423</ele>
        <time>2020-06-03T09:30:43+02:00</time>
      </trkpt>
      <trkpt lat="43.64104" lon="6.78777">
        <ele>423</ele>
        <time>2020-06-03T09:30:51+02:00</time>
      </trkpt>
      <trkpt lat="43.64112" lon="6.78769">
        <ele>423</ele>
        <time>2020-06-03T09:30:57+02:00</time>
      </trkpt>
      <trkpt lat="43.64121" lon="6.78767">
        <ele>422</ele>
        <time>2020-06-03T09:31:09+02:00</time>
      </trkpt>
      <trkpt lat="43.64131" lon="6.78763">
        <ele>421</ele>
        <time>2020-06-03T09:31:25+02:00</time>
      </trkpt>
      <trkpt lat="43.64138" lon="6.78753">
        <ele>421</ele>
        <time>2020-06-03T09:31:38+02:00</time>
      </trkpt>
      <trkpt lat="43.64147" lon="6.78747">
        <ele>420</ele>
        <time>2020-06-03T09:31:50+02:00</time>
      </trkpt>
      <trkpt lat="43.64156" lon="6.78742">
        <ele>419</ele>
        <time>2020-06-03T09:31:58+02:00</time>
      </trkpt>
      <trkpt lat="43.64162" lon="6.7873">
        <ele>419</ele>
        <time>2020-06-03T09:32:08+02:00</time>
      </trkpt>
      <trkpt lat="43.64167" lon="6.78719">
        <ele>418</ele>
        <time>2020-06-03T09:32:19+02:00</time>
      </trkpt>
      <trkpt lat="43.64175" lon="6.78712">
        <ele>417</ele>
        <time>2020-06-03T09:32:34+02:00</time>
      </trkpt>
      <trkpt lat="43.64183" lon="6.78705">
        <ele>416</ele>
        <time>2020-06-03T09:32:48+02:00</time>
      </trkpt>
      <trkpt lat="43.64191" lon="6.78697">
        <ele>415</ele>
        <time>2020-06-03T09:32:59+02:00</time>
      </trkpt>
      <trkpt lat="43.64198" lon="6.78691">
        <ele>415</ele>
        <time>2020-06-03T09:33:10+02:00</time>
      </trkpt>
      <trkpt lat="43.64207" lon="6.78686">
        <ele>414</ele>
        <time>2020-06-03T09:33:19+02:00</time>
      </trkpt>
      <trkpt lat="43.64213" lon="6.78676">
        <ele>412</ele>
        <time>2020-06-03T09:33:39+02:00</time>
      </trkpt>
      <trkpt lat="43.64221" lon="6.78668">
        <ele>410</ele>
        <time>2020-06-03T09:33:59+02:00</time>
      </trkpt>
      <trkpt lat="43.64229" lon="6.78661">
        <ele>410</ele>
        <time>2020-06-03T09:34:06+02:00</time>
      </trkpt>
      <trkpt lat="43.64237" lon="6.78655">
        <ele>407</ele>
        <time>2020-06-03T09:34:35+02:00</time>
      </trkpt>
      <trkpt lat="43.64247" lon="6.78657">
        <ele>405</ele>
        <time>2020-06-03T09:34:49+02:00</time>
      </trkpt>
      <trkpt lat="43.64256" lon="6.78655">
        <ele>404</ele>
        <time>2020-06-03T09:34:58+02:00</time>
      </trkpt>
      <trkpt lat="43.64265" lon="6.78653">
        <ele>402</ele>
        <time>2020-06-03T09:35:11+02:00</time>
      </trkpt>
      <trkpt lat="43.64273" lon="6.78646">
        <ele>400</ele>
        <time>2020-06-03T09:35:24+02:00</time>
      </trkpt>
      <trkpt lat="43.64282" lon="6.78645">
        <ele>394</ele>
        <time>2020-06-03T09:36:13+02:00</time>
      </trkpt>
      <trkpt lat="43.64289" lon="6.78637">
        <ele>392</ele>
        <time>2020-06-03T09:36:21+02:00</time>
      </trkpt>
      <trkpt lat="43.64299" lon="6.78636">
        <ele>388</ele>
        <time>2020-06-03T09:36:48+02:00</time>
      </trkpt>
      <trkpt lat="43.64304" lon="6.78647">
        <ele>387</ele>
        <time>2020-06-03T09:36:56+02:00</time>
      </trkpt>
      <trkpt lat="43.64312" lon="6.78641">
        <ele>381</ele>
        <time>2020-06-03T09:38:06+02:00</time>
      </trkpt>
      <trkpt lat="43.64318" lon="6.78652">
        <ele>379</ele>
        <time>2020-06-03T09:38:26+02:00</time>
      </trkpt>
      <trkpt lat="43.64312" lon="6.78662">
        <ele>377</ele>
        <time>2020-06-03T09:38:39+02:00</time>
      </trkpt>
      <trkpt lat="43.64305" lon="6.78671">
        <ele>374</ele>
        <time>2020-06-03T09:39:01+02:00</time>
      </trkpt>
      <trkpt lat="43.64303" lon="6.78685">
        <ele>372</ele>
        <time>2020-06-03T09:39:14+02:00</time>
      </trkpt>
      <trkpt lat="43.64297" lon="6.78694">
        <ele>370</ele>
        <time>2020-06-03T09:39:32+02:00</time>
      </trkpt>
      <trkpt lat="43.64293" lon="6.78706">
        <ele>367</ele>
        <time>2020-06-03T09:39:55+02:00</time>
      </trkpt>
      <trkpt lat="43.64288" lon="6.78717">
        <ele>365</ele>
        <time>2020-06-03T09:40:08+02:00</time>
      </trkpt>
      <trkpt lat="43.64287" lon="6.7873">
        <ele>360</ele>
        <time>2020-06-03T09:40:45+02:00</time>
      </trkpt>
      <trkpt lat="43.6428" lon="6.78739">
        <ele>356</ele>
        <time>2020-06-03T09:41:19+02:00</time>
      </trkpt>
      <trkpt lat="43.64275" lon="6.78749">
        <ele>355</ele>
        <time>2020-06-03T09:41:35+02:00</time>
      </trkpt>
      <trkpt lat="43.6427" lon="6.7876">
        <ele>336</ele>
        <time>2020-06-03T09:44:45+02:00</time>
      </trkpt>
      <trkpt lat="43.64273" lon="6.78772">
        <ele>332</ele>
        <time>2020-06-03T09:45:03+02:00</time>
      </trkpt>
      <trkpt lat="43.64282" lon="6.78775">
        <ele>326</ele>
        <time>2020-06-03T09:46:08+02:00</time>
      </trkpt>
      <trkpt lat="43.64277" lon="6.78787">
        <ele>323</ele>
        <time>2020-06-03T09:46:40+02:00</time>
      </trkpt>
      <trkpt lat="43.64273" lon="6.78799">
        <ele>321</ele>
        <time>2020-06-03T09:46:52+02:00</time>
      </trkpt>
      <trkpt lat="43.64266" lon="6.78808">
        <ele>320</ele>
        <time>2020-06-03T09:47:05+02:00</time>
      </trkpt>
      <trkpt lat="43.6426" lon="6.78818">
        <ele>318</ele>
        <time>2020-06-03T09:47:22+02:00</time>
      </trkpt>
      <trkpt lat="43.64252" lon="6.78825">
        <ele>317</ele>
        <time>2020-06-03T09:47:31+02:00</time>
      </trkpt>
      <trkpt lat="43.64247" lon="6.78835">
        <ele>316</ele>
        <time>2020-06-03T09:47:49+02:00</time>
      </trkpt>
      <trkpt lat="43.64245" lon="6.78847">
        <ele>314</ele>
        <time>2020-06-03T09:48:07+02:00</time>
      </trkpt>
      <trkpt lat="43.64241" lon="6.78859">
        <ele>312</ele>
        <time>2020-06-03T09:48:22+02:00</time>
      </trkpt>
      <trkpt lat="43.64237" lon="6.7887">
        <ele>311</ele>
        <time>2020-06-03T09:48:35+02:00</time>
      </trkpt>
      <trkpt lat="43.64238" lon="6.78883">
        <ele>304</ele>
        <time>2020-06-03T09:51:46+02:00</time>
      </trkpt>
      <trkpt lat="43.64236" lon="6.78896">
        <ele>302</ele>
        <time>2020-06-03T09:52:01+02:00</time>
      </trkpt>
      <trkpt lat="43.64232" lon="6.78908">
        <ele>301</ele>
        <time>2020-06-03T09:52:13+02:00</time>
      </trkpt>
      <trkpt lat="43.6423" lon="6.78921">
        <ele>300</ele>
        <time>2020-06-03T09:52:28+02:00</time>
      </trkpt>
      <trkpt lat="43.64226" lon="6.78932">
        <ele>299</ele>
        <time>2020-06-03T09:52:43+02:00</time>
      </trkpt>
      <trkpt lat="43.64221" lon="6.78944">
        <ele>298</ele>
        <time>2020-06-03T09:52:58+02:00</time>
      </trkpt>
      <trkpt lat="43.64223" lon="6.7896">
        <ele>296</ele>
        <time>2020-06-03T09:53:48+02:00</time>
      </trkpt>
      <trkpt lat="43.64215" lon="6.78968">
        <ele>294</ele>
        <time>2020-06-03T09:54:25+02:00</time>
      </trkpt>
      <trkpt lat="43.64224" lon="6.78963">
        <ele>292</ele>
        <time>2020-06-03T09:55:06+02:00</time>
      </trkpt>
      <trkpt lat="43.64226" lon="6.78975">
        <ele>291</ele>
        <time>2020-06-03T09:56:13+02:00</time>
      </trkpt>
      <trkpt lat="43.64234" lon="6.78982">
        <ele>289</ele>
        <time>2020-06-03T09:56:47+02:00</time>
      </trkpt>
      <trkpt lat="43.64242" lon="6.78975">
        <ele>288</ele>
        <time>2020-06-03T09:57:32+02:00</time>
      </trkpt>
      <trkpt lat="43.6425" lon="6.78981">
        <ele>287</ele>
        <time>2020-06-03T09:57:50+02:00</time>
      </trkpt>
      <trkpt lat="43.64256" lon="6.78991">
        <ele>286</ele>
        <time>2020-06-03T09:58:07+02:00</time>
      </trkpt>
      <trkpt lat="43.64265" lon="6.78996">
        <ele>283</ele>
        <time>2020-06-03T09:58:54+02:00</time>
      </trkpt>
      <trkpt lat="43.64273" lon="6.79001">
        <ele>282</ele>
        <time>2020-06-03T09:59:13+02:00</time>
      </trkpt>
      <trkpt lat="43.64279" lon="6.79011">
        <ele>281</ele>
        <time>2020-06-03T09:59:28+02:00</time>
      </trkpt>
      <trkpt lat="43.64287" lon="6.79014">
        <ele>278</ele>
        <time>2020-06-03T10:00:08+02:00</time>
      </trkpt>
      <trkpt lat="43.64285" lon="6.79002">
        <ele>269</ele>
        <time>2020-06-03T10:02:39+02:00</time>
      </trkpt>
      <trkpt lat="43.64287" lon="6.78989">
        <ele>267</ele>
        <time>2020-06-03T10:02:53+02:00</time>
      </trkpt>
      <trkpt lat="43.64294" lon="6.7898">
        <ele>264</ele>
        <time>2020-06-03T10:03:29+02:00</time>
      </trkpt>
      <trkpt lat="43.64303" lon="6.7898">
        <ele>263</ele>
        <time>2020-06-03T10:03:49+02:00</time>
      </trkpt>
      <trkpt lat="43.64312" lon="6.78981">
        <ele>262</ele>
        <time>2020-06-03T10:04:03+02:00</time>
      </trkpt>
      <trkpt lat="43.64319" lon="6.78993">
        <ele>261</ele>
        <time>2020-06-03T10:04:14+02:00</time>
      </trkpt>
      <trkpt lat="43.64323" lon="6.79005">
        <ele>259</ele>
        <time>2020-06-03T10:04:41+02:00</time>
      </trkpt>
      <trkpt lat="43.64326" lon="6.79017">
        <ele>258</ele>
        <time>2020-06-03T10:04:49+02:00</time>
      </trkpt>
      <trkpt lat="43.64327" lon="6.79029">
        <ele>257</ele>
        <time>2020-06-03T10:05:14+02:00</time>
      </trkpt>
      <trkpt lat="43.64331" lon="6.79041">
        <ele>255</ele>
        <time>2020-06-03T10:05:39+02:00</time>
      </trkpt>
      <trkpt lat="43.64334" lon="6.79054">
        <ele>254</ele>
        <time>2020-06-03T10:05:53+02:00</time>
      </trkpt>
      <trkpt lat="43.64334" lon="6.79068">
        <ele>251</ele>
        <time>2020-06-03T10:07:04+02:00</time>
      </trkpt>
      <trkpt lat="43.6433" lon="6.7908">
        <ele>250</ele>
        <time>2020-06-03T10:07:16+02:00</time>
      </trkpt>
      <trkpt lat="43.64327" lon="6.79068">
        <ele>247</ele>
        <time>2020-06-03T10:08:00+02:00</time>
      </trkpt>
      <trkpt lat="43.64331" lon="6.79057">
        <ele>246</ele>
        <time>2020-06-03T10:08:48+02:00</time>
      </trkpt>
      <trkpt lat="43.64338" lon="6.79066">
        <ele>244</ele>
        <time>2020-06-03T10:09:16+02:00</time>
      </trkpt>
      <trkpt lat="43.64348" lon="6.79069">
        <ele>243</ele>
        <time>2020-06-03T10:09:27+02:00</time>
      </trkpt>
      <trkpt lat="43.64342" lon="6.79059">
        <ele>240</ele>
        <time>2020-06-03T10:11:10+02:00</time>
      </trkpt>
      <trkpt lat="43.64334" lon="6.79051">
        <ele>239</ele>
        <time>2020-06-03T10:11:30+02:00</time>
      </trkpt>
      <trkpt lat="43.64329" lon="6.79041">
        <ele>239</ele>
        <time>2020-06-03T10:11:38+02:00</time>
      </trkpt>
      <trkpt lat="43.64327" lon="6.79028">
        <ele>239</ele>
        <time>2020-06-03T10:11:48+02:00</time>
      </trkpt>
      <trkpt lat="43.64323" lon="6.79016">
        <ele>238</ele>
        <time>2020-06-03T10:12:06+02:00</time>
      </trkpt>
      <trkpt lat="43.6432" lon="6.79005">
        <ele>238</ele>
        <time>2020-06-03T10:12:14+02:00</time>
      </trkpt>
      <trkpt lat="43.64322" lon="6.78992">
        <ele>237</ele>
        <time>2020-06-03T10:13:26+02:00</time>
      </trkpt>
      <trkpt lat="43.64318" lon="6.78981">
        <ele>236</ele>
        <time>2020-06-03T10:13:37+02:00</time>
      </trkpt>
      <trkpt lat="43.64318" lon="6.78969">
        <ele>236</ele>
        <time>2020-06-03T10:13:50+02:00</time>
      </trkpt>
      <trkpt lat="43.64323" lon="6.78958">
        <ele>236</ele>
        <time>2020-06-03T10:14:05+02:00</time>
      </trkpt>
      <trkpt lat="43.64328" lon="6.78948">
        <ele>236</ele>
        <time>2020-06-03T10:14:15+02:00</time>
      </trkpt>
      <trkpt lat="43.64335" lon="6.7894">
        <ele>235</ele>
        <time>2020-06-03T10:14:25+02:00</time>
      </trkpt>
      <trkpt lat="43.64343" lon="6.78934">
        <ele>235</ele>
        <time>2020-06-03T10:14:44+02:00</time>
      </trkpt>
      <trkpt lat="43.64353" lon="6.78936">
        <ele>235</ele>
        <time>2020-06-03T10:14:58+02:00</time>
      </trkpt>
      <trkpt lat="43.6436" lon="6.78943">
        <ele>234</ele>
        <time>2020-06-03T10:15:10+02:00</time>
      </trkpt>
      <trkpt lat="43.6437" lon="6.78941">
        <ele>234</ele>
        <time>2020-06-03T10:15:24+02:00</time>
      </trkpt>
      <trkpt lat="43.64379" lon="6.78935">
        <ele>234</ele>
        <time>2020-06-03T10:15:35+02:00</time>
      </trkpt>
      <trkpt lat="43.64388" lon="6.78934">
        <ele>234</ele>
        <time>2020-06-03T10:15:50+02:00</time>
      </trkpt>
      <trkpt lat="43.64398" lon="6.78928">
        <ele>234</ele>
        <time>2020-06-03T10:16:05+02:00</time>
      </trkpt>
      <trkpt lat="43.64407" lon="6.78924">
        <ele>233</ele>
        <time>2020-06-03T10:16:28+02:00</time>
      </trkpt>
      <trkpt lat="43.64415" lon="6.78917">
        <ele>233</ele>
        <time>2020-06-03T10:16:49+02:00</time>
      </trkpt>
      <trkpt lat="43.64424" lon="6.78912">
        <ele>233</ele>
        <time>2020-06-03T10:17:03+02:00</time>
      </trkpt>
      <trkpt lat="43.6443" lon="6.78903">
        <ele>233</ele>
        <time>2020-06-03T10:17:15+02:00</time>
      </trkpt>
      <trkpt lat="43.64439" lon="6.78897">
        <ele>233</ele>
        <time>2020-06-03T10:17:24+02:00</time>
      </trkpt>
      <trkpt lat="43.64446" lon="6.78887">
        <ele>233</ele>
        <time>2020-06-03T10:17:38+02:00</time>
      </trkpt>
      <trkpt lat="43.64449" lon="6.78875">
        <ele>232</ele>
        <time>2020-06-03T10:18:04+02:00</time>
      </trkpt>
      <trkpt lat="43.64455" lon="6.78863">
        <ele>232</ele>
        <time>2020-06-03T10:18:15+02:00</time>
      </trkpt>
      <trkpt lat="43.6446" lon="6.78852">
        <ele>232</ele>
        <time>2020-06-03T10:18:56+02:00</time>
      </trkpt>
      <trkpt lat="43.6447" lon="6.78848">
        <ele>231</ele>
        <time>2020-06-03T10:20:12+02:00</time>
      </trkpt>
      <trkpt lat="43.64476" lon="6.78837">
        <ele>231</ele>
        <time>2020-06-03T10:20:21+02:00</time>
      </trkpt>
      <trkpt lat="43.64485" lon="6.78831">
        <ele>231</ele>
        <time>2020-06-03T10:20:32+02:00</time>
      </trkpt>
      <trkpt lat="43.64494" lon="6.78824">
        <ele>230</ele>
        <time>2020-06-03T10:20:42+02:00</time>
      </trkpt>
      <trkpt lat="43.64504" lon="6.7882">
        <ele>230</ele>
        <time>2020-06-03T10:21:37+02:00</time>
      </trkpt>
      <trkpt lat="43.64512" lon="6.78811">
        <ele>230</ele>
        <time>2020-06-03T10:21:44+02:00</time>
      </trkpt>
      <trkpt lat="43.64521" lon="6.78805">
        <ele>229</ele>
        <time>2020-06-03T10:21:57+02:00</time>
      </trkpt>
      <trkpt lat="43.64528" lon="6.78799">
        <ele>229</ele>
        <time>2020-06-03T10:22:08+02:00</time>
      </trkpt>
      <trkpt lat="43.64537" lon="6.78803">
        <ele>228</ele>
        <time>2020-06-03T10:22:42+02:00</time>
      </trkpt>
      <trkpt lat="43.64544" lon="6.78795">
        <ele>228</ele>
        <time>2020-06-03T10:22:52+02:00</time>
      </trkpt>
      <trkpt lat="43.64549" lon="6.78785">
        <ele>228</ele>
        <time>2020-06-03T10:23:11+02:00</time>
      </trkpt>
      <trkpt lat="43.64557" lon="6.78776">
        <ele>228</ele>
        <time>2020-06-03T10:23:25+02:00</time>
      </trkpt>
      <trkpt lat="43.64558" lon="6.78763">
        <ele>227</ele>
        <time>2020-06-03T10:23:38+02:00</time>
      </trkpt>
      <trkpt lat="43.64566" lon="6.78756">
        <ele>227</ele>
        <time>2020-06-03T10:23:54+02:00</time>
      </trkpt>
      <trkpt lat="43.64572" lon="6.78747">
        <ele>227</ele>
        <time>2020-06-03T10:24:12+02:00</time>
      </trkpt>
      <trkpt lat="43.64578" lon="6.78756">
        <ele>227</ele>
        <time>2020-06-03T10:24:44+02:00</time>
      </trkpt>
      <trkpt lat="43.64579" lon="6.78744">
        <ele>227</ele>
        <time>2020-06-03T10:25:04+02:00</time>
      </trkpt>
      <trkpt lat="43.64585" lon="6.78734">
        <ele>227</ele>
        <time>2020-06-03T10:25:18+02:00</time>
      </trkpt>
      <trkpt lat="43.64593" lon="6.78728">
        <ele>226</ele>
        <time>2020-06-03T10:25:27+02:00</time>
      </trkpt>
      <trkpt lat="43.64602" lon="6.78727">
        <ele>226</ele>
        <time>2020-06-03T10:25:46+02:00</time>
      </trkpt>
      <trkpt lat="43.6461" lon="6.7872">
        <ele>226</ele>
        <time>2020-06-03T10:25:54+02:00</time>
      </trkpt>
      <trkpt lat="43.64618" lon="6.78714">
        <ele>226</ele>
        <time>2020-06-03T10:26:05+02:00</time>
      </trkpt>
      <trkpt lat="43.64628" lon="6.78708">
        <ele>226</ele>
        <time>2020-06-03T10:26:15+02:00</time>
      </trkpt>
      <trkpt lat="43.64636" lon="6.78701">
        <ele>226</ele>
        <time>2020-06-03T10:26:26+02:00</time>
      </trkpt>
      <trkpt lat="43.64646" lon="6.78697">
        <ele>226</ele>
        <time>2020-06-03T10:26:37+02:00</time>
      </trkpt>
      <trkpt lat="43.64655" lon="6.78694">
        <ele>226</ele>
        <time>2020-06-03T10:27:34+02:00</time>
      </trkpt>
      <trkpt lat="43.64664" lon="6.78689">
        <ele>225</ele>
        <time>2020-06-03T10:27:48+02:00</time>
      </trkpt>
      <trkpt lat="43.64671" lon="6.7868">
        <ele>225</ele>
        <time>2020-06-03T10:28:01+02:00</time>
      </trkpt>
      <trkpt lat="43.64681" lon="6.78674">
        <ele>225</ele>
        <time>2020-06-03T10:28:12+02:00</time>
      </trkpt>
      <trkpt lat="43.64689" lon="6.78666">
        <ele>225</ele>
        <time>2020-06-03T10:28:22+02:00</time>
      </trkpt>
      <trkpt lat="43.64696" lon="6.7866">
        <ele>225</ele>
        <time>2020-06-03T10:28:35+02:00</time>
      </trkpt>
      <trkpt lat="43.64702" lon="6.78649">
        <ele>225</ele>
        <time>2020-06-03T10:28:50+02:00</time>
      </trkpt>
      <trkpt lat="43.64705" lon="6.78637">
        <ele>225</ele>
        <time>2020-06-03T10:29:09+02:00</time>
      </trkpt>
      <trkpt lat="43.64714" lon="6.78631">
        <ele>225</ele>
        <time>2020-06-03T10:29:22+02:00</time>
      </trkpt>
      <trkpt lat="43.6472" lon="6.78622">
        <ele>225</ele>
        <time>2020-06-03T10:29:34+02:00</time>
      </trkpt>
      <trkpt lat="43.64726" lon="6.78612">
        <ele>225</ele>
        <time>2020-06-03T10:29:45+02:00</time>
      </trkpt>
      <trkpt lat="43.64732" lon="6.786">
        <ele>225</ele>
        <time>2020-06-03T10:29:57+02:00</time>
      </trkpt>
      <trkpt lat="43.64737" lon="6.78591">
        <ele>225</ele>
        <time>2020-06-03T10:30:07+02:00</time>
      </trkpt>
      <trkpt lat="43.64744" lon="6.78582">
        <ele>225</ele>
        <time>2020-06-03T10:30:51+02:00</time>
      </trkpt>
      <trkpt lat="43.6475" lon="6.7857">
        <ele>225</ele>
        <time>2020-06-03T10:31:28+02:00</time>
      </trkpt>
      <trkpt lat="43.64755" lon="6.78559">
        <ele>225</ele>
        <time>2020-06-03T10:32:09+02:00</time>
      </trkpt>
      <trkpt lat="43.64761" lon="6.78548">
        <ele>225</ele>
        <time>2020-06-03T10:32:20+02:00</time>
      </trkpt>
      <trkpt lat="43.64761" lon="6.78535">
        <ele>225</ele>
        <time>2020-06-03T10:33:11+02:00</time>
      </trkpt>
      <trkpt lat="43.64765" lon="6.78522">
        <ele>225</ele>
        <time>2020-06-03T10:33:25+02:00</time>
      </trkpt>
      <trkpt lat="43.64768" lon="6.7851">
        <ele>225</ele>
        <time>2020-06-03T10:33:38+02:00</time>
      </trkpt>
      <trkpt lat="43.64773" lon="6.785">
        <ele>225</ele>
        <time>2020-06-03T10:33:50+02:00</time>
      </trkpt>
      <trkpt lat="43.64779" lon="6.78488">
        <ele>225</ele>
        <time>2020-06-03T10:34:04+02:00</time>
      </trkpt>
      <trkpt lat="43.64785" lon="6.78479">
        <ele>225</ele>
        <time>2020-06-03T10:34:19+02:00</time>
      </trkpt>
      <trkpt lat="43.64794" lon="6.78473">
        <ele>224</ele>
        <time>2020-06-03T10:34:50+02:00</time>
      </trkpt>
      <trkpt lat="43.64802" lon="6.78481">
        <ele>224</ele>
        <time>2020-06-03T10:35:08+02:00</time>
      </trkpt>
      <trkpt lat="43.64809" lon="6.7849">
        <ele>224</ele>
        <time>2020-06-03T10:35:33+02:00</time>
      </trkpt>
      <trkpt lat="43.64803" lon="6.7848">
        <ele>225</ele>
        <time>2020-06-03T10:39:02+02:00</time>
      </trkpt>
      <trkpt lat="43.64802" lon="6.78493">
        <ele>225</ele>
        <time>2020-06-03T10:43:31+02:00</time>
      </trkpt>
      <trkpt lat="43.64804" lon="6.7848">
        <ele>225</ele>
        <time>2020-06-03T10:44:07+02:00</time>
      </trkpt>
      <trkpt lat="43.64811" lon="6.78471">
        <ele>225</ele>
        <time>2020-06-03T10:47:01+02:00</time>
      </trkpt>
      <trkpt lat="43.64818" lon="6.78463">
        <ele>225</ele>
        <time>2020-06-03T10:47:14+02:00</time>
      </trkpt>
      <trkpt lat="43.64826" lon="6.78456">
        <ele>225</ele>
        <time>2020-06-03T10:47:31+02:00</time>
      </trkpt>
      <trkpt lat="43.64834" lon="6.78451">
        <ele>225</ele>
        <time>2020-06-03T10:47:44+02:00</time>
      </trkpt>
      <trkpt lat="43.64844" lon="6.78454">
        <ele>225</ele>
        <time>2020-06-03T10:47:54+02:00</time>
      </trkpt>
      <trkpt lat="43.64853" lon="6.7845">
        <ele>225</ele>
        <time>2020-06-03T10:48:00+02:00</time>
      </trkpt>
      <trkpt lat="43.64862" lon="6.78453">
        <ele>225</ele>
        <time>2020-06-03T10:48:12+02:00</time>
      </trkpt>
      <trkpt lat="43.64872" lon="6.78455">
        <ele>225</ele>
        <time>2020-06-03T10:48:23+02:00</time>
      </trkpt>
      <trkpt lat="43.64882" lon="6.78455">
        <ele>225</ele>
        <time>2020-06-03T10:48:33+02:00</time>
      </trkpt>
      <trkpt lat="43.64891" lon="6.78457">
        <ele>225</ele>
        <time>2020-06-03T10:48:46+02:00</time>
      </trkpt>
      <trkpt lat="43.64901" lon="6.78455">
        <ele>225</ele>
        <time>2020-06-03T10:48:57+02:00</time>
      </trkpt>
      <trkpt lat="43.64911" lon="6.78457">
        <ele>225</ele>
        <time>2020-06-03T10:49:09+02:00</time>
      </trkpt>
      <trkpt lat="43.6492" lon="6.78456">
        <ele>225</ele>
        <time>2020-06-03T10:49:19+02:00</time>
      </trkpt>
      <trkpt lat="43.64929" lon="6.78462">
        <ele>225</ele>
        <time>2020-06-03T10:49:28+02:00</time>
      </trkpt>
      <trkpt lat="43.64937" lon="6.78468">
        <ele>225</ele>
        <time>2020-06-03T10:49:39+02:00</time>
      </trkpt>
      <trkpt lat="43.64944" lon="6.78476">
        <ele>225</ele>
        <time>2020-06-03T10:49:57+02:00</time>
      </trkpt>
      <trkpt lat="43.64953" lon="6.78481">
        <ele>225</ele>
        <time>2020-06-03T10:50:12+02:00</time>
      </trkpt>
      <trkpt lat="43.64961" lon="6.78488">
        <ele>225</ele>
        <time>2020-06-03T10:50:22+02:00</time>
      </trkpt>
      <trkpt lat="43.64968" lon="6.78496">
        <ele>224</ele>
        <time>2020-06-03T10:50:33+02:00</time>
      </trkpt>
      <trkpt lat="43.64974" lon="6.78506">
        <ele>224</ele>
        <time>2020-06-03T10:50:43+02:00</time>
      </trkpt>
      <trkpt lat="43.64981" lon="6.78514">
        <ele>224</ele>
        <time>2020-06-03T10:50:52+02:00</time>
      </trkpt>
      <trkpt lat="43.64988" lon="6.78522">
        <ele>224</ele>
        <time>2020-06-03T10:51:03+02:00</time>
      </trkpt>
      <trkpt lat="43.64996" lon="6.78529">
        <ele>224</ele>
        <time>2020-06-03T10:51:14+02:00</time>
      </trkpt>
      <trkpt lat="43.65005" lon="6.78532">
        <ele>224</ele>
        <time>2020-06-03T10:51:23+02:00</time>
      </trkpt>
      <trkpt lat="43.65014" lon="6.78531">
        <ele>224</ele>
        <time>2020-06-03T10:51:52+02:00</time>
      </trkpt>
      <trkpt lat="43.65024" lon="6.78527">
        <ele>224</ele>
        <time>2020-06-03T10:52:08+02:00</time>
      </trkpt>
      <trkpt lat="43.65033" lon="6.78529">
        <ele>223</ele>
        <time>2020-06-03T10:52:19+02:00</time>
      </trkpt>
      <trkpt lat="43.65041" lon="6.78536">
        <ele>223</ele>
        <time>2020-06-03T10:52:29+02:00</time>
      </trkpt>
      <trkpt lat="43.6505" lon="6.78533">
        <ele>223</ele>
        <time>2020-06-03T10:52:44+02:00</time>
      </trkpt>
      <trkpt lat="43.6506" lon="6.78534">
        <ele>222</ele>
        <time>2020-06-03T10:54:20+02:00</time>
      </trkpt>
      <trkpt lat="43.65069" lon="6.78536">
        <ele>222</ele>
        <time>2020-06-03T10:54:29+02:00</time>
      </trkpt>
      <trkpt lat="43.65078" lon="6.7854">
        <ele>222</ele>
        <time>2020-06-03T10:54:57+02:00</time>
      </trkpt>
      <trkpt lat="43.65087" lon="6.78541">
        <ele>222</ele>
        <time>2020-06-03T10:55:05+02:00</time>
      </trkpt>
      <trkpt lat="43.65096" lon="6.78541">
        <ele>222</ele>
        <time>2020-06-03T10:55:14+02:00</time>
      </trkpt>
      <trkpt lat="43.65106" lon="6.78537">
        <ele>222</ele>
        <time>2020-06-03T10:55:25+02:00</time>
      </trkpt>
      <trkpt lat="43.65115" lon="6.78533">
        <ele>222</ele>
        <time>2020-06-03T10:55:37+02:00</time>
      </trkpt>
      <trkpt lat="43.65124" lon="6.78528">
        <ele>222</ele>
        <time>2020-06-03T10:55:48+02:00</time>
      </trkpt>
      <trkpt lat="43.65133" lon="6.7852">
        <ele>222</ele>
        <time>2020-06-03T10:56:00+02:00</time>
      </trkpt>
      <trkpt lat="43.65139" lon="6.7851">
        <ele>222</ele>
        <time>2020-06-03T10:56:10+02:00</time>
      </trkpt>
      <trkpt lat="43.65146" lon="6.78502">
        <ele>221</ele>
        <time>2020-06-03T10:56:22+02:00</time>
      </trkpt>
      <trkpt lat="43.65153" lon="6.78492">
        <ele>221</ele>
        <time>2020-06-03T10:56:38+02:00</time>
      </trkpt>
      <trkpt lat="43.6516" lon="6.78483">
        <ele>221</ele>
        <time>2020-06-03T10:56:54+02:00</time>
      </trkpt>
      <trkpt lat="43.65169" lon="6.78476">
        <ele>221</ele>
        <time>2020-06-03T10:57:00+02:00</time>
      </trkpt>
      <trkpt lat="43.65177" lon="6.78471">
        <ele>221</ele>
        <time>2020-06-03T10:57:09+02:00</time>
      </trkpt>
      <trkpt lat="43.65184" lon="6.78462">
        <ele>221</ele>
        <time>2020-06-03T10:57:20+02:00</time>
      </trkpt>
      <trkpt lat="43.65192" lon="6.78455">
        <ele>221</ele>
        <time>2020-06-03T10:57:32+02:00</time>
      </trkpt>
      <trkpt lat="43.652" lon="6.78448">
        <ele>221</ele>
        <time>2020-06-03T10:57:45+02:00</time>
      </trkpt>
      <trkpt lat="43.65206" lon="6.78438">
        <ele>221</ele>
        <time>2020-06-03T10:57:56+02:00</time>
      </trkpt>
      <trkpt lat="43.65214" lon="6.78434">
        <ele>221</ele>
        <time>2020-06-03T10:58:12+02:00</time>
      </trkpt>
      <trkpt lat="43.65219" lon="6.78423">
        <ele>221</ele>
        <time>2020-06-03T10:58:22+02:00</time>
      </trkpt>
      <trkpt lat="43.65227" lon="6.78418">
        <ele>221</ele>
        <time>2020-06-03T10:58:33+02:00</time>
      </trkpt>
      <trkpt lat="43.65237" lon="6.78414">
        <ele>221</ele>
        <time>2020-06-03T10:58:41+02:00</time>
      </trkpt>
      <trkpt lat="43.65244" lon="6.78406">
        <ele>221</ele>
        <time>2020-06-03T10:58:50+02:00</time>
      </trkpt>
      <trkpt lat="43.65245" lon="6.78392">
        <ele>221</ele>
        <time>2020-06-03T10:59:06+02:00</time>
      </trkpt>
      <trkpt lat="43.65251" lon="6.78382">
        <ele>221</ele>
        <time>2020-06-03T10:59:20+02:00</time>
      </trkpt>
      <trkpt lat="43.65256" lon="6.78371">
        <ele>221</ele>
        <time>2020-06-03T10:59:34+02:00</time>
      </trkpt>
      <trkpt lat="43.65261" lon="6.7836">
        <ele>221</ele>
        <time>2020-06-03T10:59:44+02:00</time>
      </trkpt>
      <trkpt lat="43.65262" lon="6.78347">
        <ele>221</ele>
        <time>2020-06-03T10:59:53+02:00</time>
      </trkpt>
      <trkpt lat="43.65269" lon="6.78337">
        <ele>221</ele>
        <time>2020-06-03T11:00:02+02:00</time>
      </trkpt>
      <trkpt lat="43.65272" lon="6.78325">
        <ele>221</ele>
        <time>2020-06-03T11:00:16+02:00</time>
      </trkpt>
      <trkpt lat="43.65278" lon="6.78315">
        <ele>221</ele>
        <time>2020-06-03T11:00:25+02:00</time>
      </trkpt>
      <trkpt lat="43.65279" lon="6.78301">
        <ele>222</ele>
        <time>2020-06-03T11:00:43+02:00</time>
      </trkpt>
      <trkpt lat="43.65283" lon="6.78289">
        <ele>222</ele>
        <time>2020-06-03T11:01:00+02:00</time>
      </trkpt>
      <trkpt lat="43.65289" lon="6.78277">
        <ele>222</ele>
        <time>2020-06-03T11:01:11+02:00</time>
      </trkpt>
      <trkpt lat="43.65295" lon="6.78269">
        <ele>222</ele>
        <time>2020-06-03T11:01:19+02:00</time>
      </trkpt>
      <trkpt lat="43.65305" lon="6.78263">
        <ele>222</ele>
        <time>2020-06-03T11:01:29+02:00</time>
      </trkpt>
      <trkpt lat="43.65313" lon="6.78258">
        <ele>222</ele>
        <time>2020-06-03T11:01:39+02:00</time>
      </trkpt>
      <trkpt lat="43.65323" lon="6.78256">
        <ele>222</ele>
        <time>2020-06-03T11:02:06+02:00</time>
      </trkpt>
      <trkpt lat="43.6533" lon="6.78247">
        <ele>222</ele>
        <time>2020-06-03T11:02:17+02:00</time>
      </trkpt>
      <trkpt lat="43.65337" lon="6.78239">
        <ele>222</ele>
        <time>2020-06-03T11:02:34+02:00</time>
      </trkpt>
      <trkpt lat="43.65346" lon="6.78234">
        <ele>222</ele>
        <time>2020-06-03T11:02:44+02:00</time>
      </trkpt>
      <trkpt lat="43.65355" lon="6.78229">
        <ele>223</ele>
        <time>2020-06-03T11:02:55+02:00</time>
      </trkpt>
      <trkpt lat="43.65364" lon="6.78227">
        <ele>223</ele>
        <time>2020-06-03T11:03:07+02:00</time>
      </trkpt>
      <trkpt lat="43.65373" lon="6.78232">
        <ele>223</ele>
        <time>2020-06-03T11:03:18+02:00</time>
      </trkpt>
      <trkpt lat="43.65374" lon="6.78219">
        <ele>223</ele>
        <time>2020-06-03T11:03:50+02:00</time>
      </trkpt>
      <trkpt lat="43.65379" lon="6.78208">
        <ele>223</ele>
        <time>2020-06-03T11:04:02+02:00</time>
      </trkpt>
      <trkpt lat="43.65385" lon="6.78197">
        <ele>223</ele>
        <time>2020-06-03T11:04:19+02:00</time>
      </trkpt>
      <trkpt lat="43.65394" lon="6.78194">
        <ele>224</ele>
        <time>2020-06-03T11:05:27+02:00</time>
      </trkpt>
      <trkpt lat="43.65398" lon="6.78182">
        <ele>224</ele>
        <time>2020-06-03T11:05:37+02:00</time>
      </trkpt>
      <trkpt lat="43.65402" lon="6.7817">
        <ele>225</ele>
        <time>2020-06-03T11:05:49+02:00</time>
      </trkpt>
      <trkpt lat="43.6541" lon="6.78161">
        <ele>226</ele>
        <time>2020-06-03T11:06:48+02:00</time>
      </trkpt>
      <trkpt lat="43.65418" lon="6.78154">
        <ele>226</ele>
        <time>2020-06-03T11:06:57+02:00</time>
      </trkpt>
      <trkpt lat="43.65419" lon="6.78141">
        <ele>226</ele>
        <time>2020-06-03T11:07:13+02:00</time>
      </trkpt>
      <trkpt lat="43.65423" lon="6.78129">
        <ele>227</ele>
        <time>2020-06-03T11:07:22+02:00</time>
      </trkpt>
      <trkpt lat="43.65428" lon="6.78117">
        <ele>227</ele>
        <time>2020-06-03T11:07:34+02:00</time>
      </trkpt>
      <trkpt lat="43.65432" lon="6.78106">
        <ele>228</ele>
        <time>2020-06-03T11:08:01+02:00</time>
      </trkpt>
      <trkpt lat="43.65434" lon="6.78093">
        <ele>228</ele>
        <time>2020-06-03T11:08:12+02:00</time>
      </trkpt>
      <trkpt lat="43.65441" lon="6.78085">
        <ele>229</ele>
        <time>2020-06-03T11:08:21+02:00</time>
      </trkpt>
      <trkpt lat="43.65451" lon="6.78081">
        <ele>229</ele>
        <time>2020-06-03T11:08:32+02:00</time>
      </trkpt>
      <trkpt lat="43.65459" lon="6.78073">
        <ele>230</ele>
        <time>2020-06-03T11:08:40+02:00</time>
      </trkpt>
      <trkpt lat="43.65466" lon="6.78065">
        <ele>230</ele>
        <time>2020-06-03T11:08:51+02:00</time>
      </trkpt>
      <trkpt lat="43.65474" lon="6.78055">
        <ele>231</ele>
        <time>2020-06-03T11:09:03+02:00</time>
      </trkpt>
      <trkpt lat="43.6548" lon="6.78044">
        <ele>231</ele>
        <time>2020-06-03T11:09:11+02:00</time>
      </trkpt>
      <trkpt lat="43.6548" lon="6.78031">
        <ele>231</ele>
        <time>2020-06-03T11:09:19+02:00</time>
      </trkpt>
      <trkpt lat="43.65475" lon="6.78019">
        <ele>232</ele>
        <time>2020-06-03T11:09:28+02:00</time>
      </trkpt>
      <trkpt lat="43.65475" lon="6.78005">
        <ele>232</ele>
        <time>2020-06-03T11:09:39+02:00</time>
      </trkpt>
      <trkpt lat="43.65481" lon="6.77995">
        <ele>233</ele>
        <time>2020-06-03T11:09:51+02:00</time>
      </trkpt>
      <trkpt lat="43.65487" lon="6.77986">
        <ele>233</ele>
        <time>2020-06-03T11:09:59+02:00</time>
      </trkpt>
      <trkpt lat="43.6549" lon="6.77973">
        <ele>233</ele>
        <time>2020-06-03T11:10:10+02:00</time>
      </trkpt>
      <trkpt lat="43.65494" lon="6.77962">
        <ele>234</ele>
        <time>2020-06-03T11:10:18+02:00</time>
      </trkpt>
      <trkpt lat="43.65496" lon="6.77949">
        <ele>234</ele>
        <time>2020-06-03T11:10:29+02:00</time>
      </trkpt>
      <trkpt lat="43.65498" lon="6.77937">
        <ele>234</ele>
        <time>2020-06-03T11:10:39+02:00</time>
      </trkpt>
      <trkpt lat="43.65501" lon="6.77925">
        <ele>235</ele>
        <time>2020-06-03T11:10:48+02:00</time>
      </trkpt>
      <trkpt lat="43.65505" lon="6.77913">
        <ele>235</ele>
        <time>2020-06-03T11:10:58+02:00</time>
      </trkpt>
      <trkpt lat="43.65501" lon="6.77901">
        <ele>235</ele>
        <time>2020-06-03T11:11:08+02:00</time>
      </trkpt>
      <trkpt lat="43.65493" lon="6.77891">
        <ele>236</ele>
        <time>2020-06-03T11:11:22+02:00</time>
      </trkpt>
      <trkpt lat="43.65493" lon="6.77878">
        <ele>236</ele>
        <time>2020-06-03T11:11:34+02:00</time>
      </trkpt>
      <trkpt lat="43.65498" lon="6.77868">
        <ele>237</ele>
        <time>2020-06-03T11:11:44+02:00</time>
      </trkpt>
      <trkpt lat="43.65503" lon="6.77857">
        <ele>237</ele>
        <time>2020-06-03T11:11:55+02:00</time>
      </trkpt>
      <trkpt lat="43.65508" lon="6.77846">
        <ele>237</ele>
        <time>2020-06-03T11:12:08+02:00</time>
      </trkpt>
      <trkpt lat="43.6551" lon="6.77833">
        <ele>238</ele>
        <time>2020-06-03T11:12:18+02:00</time>
      </trkpt>
      <trkpt lat="43.65515" lon="6.7782">
        <ele>238</ele>
        <time>2020-06-03T11:12:37+02:00</time>
      </trkpt>
      <trkpt lat="43.65518" lon="6.77808">
        <ele>238</ele>
        <time>2020-06-03T11:12:47+02:00</time>
      </trkpt>
      <trkpt lat="43.65523" lon="6.77797">
        <ele>238</ele>
        <time>2020-06-03T11:13:01+02:00</time>
      </trkpt>
      <trkpt lat="43.65531" lon="6.7779">
        <ele>238</ele>
        <time>2020-06-03T11:13:12+02:00</time>
      </trkpt>
      <trkpt lat="43.65539" lon="6.77784">
        <ele>239</ele>
        <time>2020-06-03T11:13:23+02:00</time>
      </trkpt>
      <trkpt lat="43.65543" lon="6.77771">
        <ele>239</ele>
        <time>2020-06-03T11:13:34+02:00</time>
      </trkpt>
      <trkpt lat="43.6555" lon="6.77764">
        <ele>239</ele>
        <time>2020-06-03T11:13:48+02:00</time>
      </trkpt>
      <trkpt lat="43.65559" lon="6.77757">
        <ele>239</ele>
        <time>2020-06-03T11:13:56+02:00</time>
      </trkpt>
      <trkpt lat="43.65567" lon="6.77751">
        <ele>239</ele>
        <time>2020-06-03T11:14:08+02:00</time>
      </trkpt>
      <trkpt lat="43.65576" lon="6.77747">
        <ele>239</ele>
        <time>2020-06-03T11:14:20+02:00</time>
      </trkpt>
      <trkpt lat="43.65586" lon="6.77746">
        <ele>239</ele>
        <time>2020-06-03T11:14:35+02:00</time>
      </trkpt>
      <trkpt lat="43.65596" lon="6.77745">
        <ele>239</ele>
        <time>2020-06-03T11:14:47+02:00</time>
      </trkpt>
      <trkpt lat="43.65606" lon="6.77745">
        <ele>239</ele>
        <time>2020-06-03T11:14:55+02:00</time>
      </trkpt>
      <trkpt lat="43.65615" lon="6.77738">
        <ele>240</ele>
        <time>2020-06-03T11:15:09+02:00</time>
      </trkpt>
      <trkpt lat="43.65625" lon="6.77735">
        <ele>240</ele>
        <time>2020-06-03T11:15:18+02:00</time>
      </trkpt>
      <trkpt lat="43.65634" lon="6.7773">
        <ele>240</ele>
        <time>2020-06-03T11:15:30+02:00</time>
      </trkpt>
      <trkpt lat="43.65639" lon="6.77718">
        <ele>240</ele>
        <time>2020-06-03T11:15:41+02:00</time>
      </trkpt>
      <trkpt lat="43.65647" lon="6.77713">
        <ele>240</ele>
        <time>2020-06-03T11:15:51+02:00</time>
      </trkpt>
      <trkpt lat="43.65656" lon="6.7771">
        <ele>240</ele>
        <time>2020-06-03T11:16:06+02:00</time>
      </trkpt>
      <trkpt lat="43.65667" lon="6.77713">
        <ele>240</ele>
        <time>2020-06-03T11:16:16+02:00</time>
      </trkpt>
      <trkpt lat="43.65677" lon="6.77717">
        <ele>240</ele>
        <time>2020-06-03T11:16:22+02:00</time>
      </trkpt>
      <trkpt lat="43.65686" lon="6.7772">
        <ele>241</ele>
        <time>2020-06-03T11:16:32+02:00</time>
      </trkpt>
      <trkpt lat="43.65695" lon="6.77721">
        <ele>241</ele>
        <time>2020-06-03T11:16:47+02:00</time>
      </trkpt>
      <trkpt lat="43.65706" lon="6.77721">
        <ele>241</ele>
        <time>2020-06-03T11:16:59+02:00</time>
      </trkpt>
      <trkpt lat="43.65715" lon="6.77717">
        <ele>241</ele>
        <time>2020-06-03T11:17:08+02:00</time>
      </trkpt>
      <trkpt lat="43.65724" lon="6.77721">
        <ele>241</ele>
        <time>2020-06-03T11:17:21+02:00</time>
      </trkpt>
      <trkpt lat="43.65732" lon="6.77728">
        <ele>241</ele>
        <time>2020-06-03T11:17:31+02:00</time>
      </trkpt>
      <trkpt lat="43.65739" lon="6.77736">
        <ele>242</ele>
        <time>2020-06-03T11:17:44+02:00</time>
      </trkpt>
      <trkpt lat="43.65748" lon="6.77734">
        <ele>242</ele>
        <time>2020-06-03T11:17:54+02:00</time>
      </trkpt>
      <trkpt lat="43.65758" lon="6.77733">
        <ele>242</ele>
        <time>2020-06-03T11:18:03+02:00</time>
      </trkpt>
      <trkpt lat="43.65767" lon="6.7773">
        <ele>242</ele>
        <time>2020-06-03T11:18:16+02:00</time>
      </trkpt>
      <trkpt lat="43.65775" lon="6.77725">
        <ele>242</ele>
        <time>2020-06-03T11:18:30+02:00</time>
      </trkpt>
      <trkpt lat="43.65784" lon="6.77723">
        <ele>243</ele>
        <time>2020-06-03T11:18:49+02:00</time>
      </trkpt>
      <trkpt lat="43.65792" lon="6.77716">
        <ele>243</ele>
        <time>2020-06-03T11:19:04+02:00</time>
      </trkpt>
      <trkpt lat="43.65801" lon="6.77715">
        <ele>243</ele>
        <time>2020-06-03T11:19:14+02:00</time>
      </trkpt>
      <trkpt lat="43.65811" lon="6.77715">
        <ele>243</ele>
        <time>2020-06-03T11:19:30+02:00</time>
      </trkpt>
      <trkpt lat="43.6582" lon="6.77717">
        <ele>244</ele>
        <time>2020-06-03T11:19:42+02:00</time>
      </trkpt>
      <trkpt lat="43.65829" lon="6.77713">
        <ele>244</ele>
        <time>2020-06-03T11:19:58+02:00</time>
      </trkpt>
      <trkpt lat="43.65834" lon="6.77702">
        <ele>244</ele>
        <time>2020-06-03T11:20:13+02:00</time>
      </trkpt>
      <trkpt lat="43.65836" lon="6.77688">
        <ele>244</ele>
        <time>2020-06-03T11:20:21+02:00</time>
      </trkpt>
      <trkpt lat="43.65846" lon="6.77686">
        <ele>244</ele>
        <time>2020-06-03T11:20:33+02:00</time>
      </trkpt>
      <trkpt lat="43.65855" lon="6.77685">
        <ele>245</ele>
        <time>2020-06-03T11:20:42+02:00</time>
      </trkpt>
      <trkpt lat="43.65865" lon="6.77685">
        <ele>245</ele>
        <time>2020-06-03T11:20:50+02:00</time>
      </trkpt>
      <trkpt lat="43.65874" lon="6.77685">
        <ele>245</ele>
        <time>2020-06-03T11:20:59+02:00</time>
      </trkpt>
      <trkpt lat="43.65884" lon="6.77682">
        <ele>245</ele>
        <time>2020-06-03T11:21:12+02:00</time>
      </trkpt>
      <trkpt lat="43.65893" lon="6.77688">
        <ele>245</ele>
        <time>2020-06-03T11:21:39+02:00</time>
      </trkpt>
      <trkpt lat="43.65902" lon="6.77686">
        <ele>246</ele>
        <time>2020-06-03T11:21:49+02:00</time>
      </trkpt>
      <trkpt lat="43.65912" lon="6.77682">
        <ele>246</ele>
        <time>2020-06-03T11:22:02+02:00</time>
      </trkpt>
      <trkpt lat="43.65919" lon="6.77675">
        <ele>246</ele>
        <time>2020-06-03T11:22:21+02:00</time>
      </trkpt>
      <trkpt lat="43.65925" lon="6.77666">
        <ele>246</ele>
        <time>2020-06-03T11:22:31+02:00</time>
      </trkpt>
      <trkpt lat="43.65935" lon="6.77665">
        <ele>246</ele>
        <time>2020-06-03T11:22:40+02:00</time>
      </trkpt>
      <trkpt lat="43.65946" lon="6.77664">
        <ele>247</ele>
        <time>2020-06-03T11:22:48+02:00</time>
      </trkpt>
      <trkpt lat="43.65955" lon="6.77664">
        <ele>247</ele>
        <time>2020-06-03T11:22:57+02:00</time>
      </trkpt>
      <trkpt lat="43.65963" lon="6.77659">
        <ele>247</ele>
        <time>2020-06-03T11:23:17+02:00</time>
      </trkpt>
      <trkpt lat="43.65973" lon="6.77655">
        <ele>247</ele>
        <time>2020-06-03T11:23:27+02:00</time>
      </trkpt>
      <trkpt lat="43.65981" lon="6.77649">
        <ele>248</ele>
        <time>2020-06-03T11:23:40+02:00</time>
      </trkpt>
      <trkpt lat="43.6599" lon="6.77643">
        <ele>248</ele>
        <time>2020-06-03T11:23:52+02:00</time>
      </trkpt>
      <trkpt lat="43.65994" lon="6.77654">
        <ele>248</ele>
        <time>2020-06-03T11:24:02+02:00</time>
      </trkpt>
      <trkpt lat="43.65998" lon="6.77666">
        <ele>248</ele>
        <time>2020-06-03T11:24:33+02:00</time>
      </trkpt>
      <trkpt lat="43.65991" lon="6.77657">
        <ele>248</ele>
        <time>2020-06-03T11:26:03+02:00</time>
      </trkpt>
      <trkpt lat="43.65991" lon="6.7767">
        <ele>248</ele>
        <time>2020-06-03T11:26:49+02:00</time>
      </trkpt>
      <trkpt lat="43.65998" lon="6.77661">
        <ele>247</ele>
        <time>2020-06-03T11:28:06+02:00</time>
      </trkpt>
      <trkpt lat="43.65992" lon="6.7765">
        <ele>247</ele>
        <time>2020-06-03T11:29:12+02:00</time>
      </trkpt>
      <trkpt lat="43.65987" lon="6.77639">
        <ele>247</ele>
        <time>2020-06-03T11:29:24+02:00</time>
      </trkpt>
      <trkpt lat="43.65978" lon="6.77642">
        <ele>247</ele>
        <time>2020-06-03T11:29:38+02:00</time>
      </trkpt>
      <trkpt lat="43.65984" lon="6.77633">
        <ele>247</ele>
        <time>2020-06-03T11:30:01+02:00</time>
      </trkpt>
      <trkpt lat="43.65979" lon="6.77623">
        <ele>247</ele>
        <time>2020-06-03T11:30:27+02:00</time>
      </trkpt>
      <trkpt lat="43.65969" lon="6.77622">
        <ele>247</ele>
        <time>2020-06-03T11:30:37+02:00</time>
      </trkpt>
      <trkpt lat="43.6596" lon="6.77625">
        <ele>248</ele>
        <time>2020-06-03T11:30:48+02:00</time>
      </trkpt>
      <trkpt lat="43.65951" lon="6.7762">
        <ele>248</ele>
        <time>2020-06-03T11:30:57+02:00</time>
      </trkpt>
      <trkpt lat="43.65943" lon="6.77614">
        <ele>248</ele>
        <time>2020-06-03T11:31:11+02:00</time>
      </trkpt>
      <trkpt lat="43.65935" lon="6.77608">
        <ele>249</ele>
        <time>2020-06-03T11:31:24+02:00</time>
      </trkpt>
      <trkpt lat="43.65925" lon="6.77612">
        <ele>249</ele>
        <time>2020-06-03T11:31:38+02:00</time>
      </trkpt>
      <trkpt lat="43.65916" lon="6.77615">
        <ele>250</ele>
        <time>2020-06-03T11:31:47+02:00</time>
      </trkpt>
      <trkpt lat="43.65907" lon="6.77611">
        <ele>250</ele>
        <time>2020-06-03T11:32:02+02:00</time>
      </trkpt>
      <trkpt lat="43.65898" lon="6.7761">
        <ele>250</ele>
        <time>2020-06-03T11:32:16+02:00</time>
      </trkpt>
      <trkpt lat="43.65887" lon="6.77608">
        <ele>251</ele>
        <time>2020-06-03T11:32:27+02:00</time>
      </trkpt>
      <trkpt lat="43.65878" lon="6.77609">
        <ele>251</ele>
        <time>2020-06-03T11:32:36+02:00</time>
      </trkpt>
      <trkpt lat="43.65869" lon="6.77613">
        <ele>252</ele>
        <time>2020-06-03T11:32:50+02:00</time>
      </trkpt>
      <trkpt lat="43.65859" lon="6.77615">
        <ele>252</ele>
        <time>2020-06-03T11:32:58+02:00</time>
      </trkpt>
      <trkpt lat="43.65849" lon="6.77618">
        <ele>253</ele>
        <time>2020-06-03T11:33:14+02:00</time>
      </trkpt>
      <trkpt lat="43.65839" lon="6.77618">
        <ele>254</ele>
        <time>2020-06-03T11:33:30+02:00</time>
      </trkpt>
      <trkpt lat="43.6583" lon="6.77614">
        <ele>255</ele>
        <time>2020-06-03T11:33:38+02:00</time>
      </trkpt>
      <trkpt lat="43.65821" lon="6.77608">
        <ele>255</ele>
        <time>2020-06-03T11:33:47+02:00</time>
      </trkpt>
      <trkpt lat="43.65811" lon="6.77607">
        <ele>256</ele>
        <time>2020-06-03T11:34:00+02:00</time>
      </trkpt>
      <trkpt lat="43.65803" lon="6.77613">
        <ele>256</ele>
        <time>2020-06-03T11:34:10+02:00</time>
      </trkpt>
      <trkpt lat="43.65794" lon="6.77612">
        <ele>258</ele>
        <time>2020-06-03T11:34:48+02:00</time>
      </trkpt>
      <trkpt lat="43.65789" lon="6.77602">
        <ele>261</ele>
        <time>2020-06-03T11:35:54+02:00</time>
      </trkpt>
      <trkpt lat="43.65784" lon="6.77591">
        <ele>262</ele>
        <time>2020-06-03T11:36:15+02:00</time>
      </trkpt>
      <trkpt lat="43.65775" lon="6.77588">
        <ele>264</ele>
        <time>2020-06-03T11:37:10+02:00</time>
      </trkpt>
      <trkpt lat="43.65766" lon="6.7759">
        <ele>266</ele>
        <time>2020-06-03T11:37:51+02:00</time>
      </trkpt>
      <trkpt lat="43.65756" lon="6.77589">
        <ele>266</ele>
        <time>2020-06-03T11:38:00+02:00</time>
      </trkpt>
      <trkpt lat="43.65747" lon="6.77587">
        <ele>266</ele>
        <time>2020-06-03T11:38:06+02:00</time>
      </trkpt>
      <trkpt lat="43.65738" lon="6.77593">
        <ele>267</ele>
        <time>2020-06-03T11:38:28+02:00</time>
      </trkpt>
      <trkpt lat="43.65729" lon="6.77596">
        <ele>268</ele>
        <time>2020-06-03T11:38:38+02:00</time>
      </trkpt>
      <trkpt lat="43.65721" lon="6.77602">
        <ele>268</ele>
        <time>2020-06-03T11:39:12+02:00</time>
      </trkpt>
      <trkpt lat="43.65726" lon="6.77614">
        <ele>272</ele>
        <time>2020-06-03T11:40:42+02:00</time>
      </trkpt>
      <trkpt lat="43.65722" lon="6.77627">
        <ele>273</ele>
        <time>2020-06-03T11:40:52+02:00</time>
      </trkpt>
      <trkpt lat="43.65718" lon="6.77638">
        <ele>273</ele>
        <time>2020-06-03T11:41:05+02:00</time>
      </trkpt>
      <trkpt lat="43.65709" lon="6.77644">
        <ele>274</ele>
        <time>2020-06-03T11:41:14+02:00</time>
      </trkpt>
      <trkpt lat="43.657" lon="6.77648">
        <ele>274</ele>
        <time>2020-06-03T11:41:23+02:00</time>
      </trkpt>
      <trkpt lat="43.6569" lon="6.77649">
        <ele>274</ele>
        <time>2020-06-03T11:41:30+02:00</time>
      </trkpt>
      <trkpt lat="43.65679" lon="6.7765">
        <ele>275</ele>
        <time>2020-06-03T11:41:35+02:00</time>
      </trkpt>
      <trkpt lat="43.6567" lon="6.77652">
        <ele>275</ele>
        <time>2020-06-03T11:41:43+02:00</time>
      </trkpt>
      <trkpt lat="43.65661" lon="6.77654">
        <ele>276</ele>
        <time>2020-06-03T11:41:54+02:00</time>
      </trkpt>
      <trkpt lat="43.65652" lon="6.77652">
        <ele>276</ele>
        <time>2020-06-03T11:42:05+02:00</time>
      </trkpt>
      <trkpt lat="43.65643" lon="6.77644">
        <ele>276</ele>
        <time>2020-06-03T11:42:16+02:00</time>
      </trkpt>
      <trkpt lat="43.65634" lon="6.77642">
        <ele>277</ele>
        <time>2020-06-03T11:42:52+02:00</time>
      </trkpt>
      <trkpt lat="43.65625" lon="6.77642">
        <ele>278</ele>
        <time>2020-06-03T11:43:11+02:00</time>
      </trkpt>
      <trkpt lat="43.65616" lon="6.77645">
        <ele>278</ele>
        <time>2020-06-03T11:43:37+02:00</time>
      </trkpt>
      <trkpt lat="43.65607" lon="6.77641">
        <ele>279</ele>
        <time>2020-06-03T11:43:52+02:00</time>
      </trkpt>
      <trkpt lat="43.65598" lon="6.77642">
        <ele>279</ele>
        <time>2020-06-03T11:44:01+02:00</time>
      </trkpt>
      <trkpt lat="43.65589" lon="6.77646">
        <ele>279</ele>
        <time>2020-06-03T11:44:12+02:00</time>
      </trkpt>
      <trkpt lat="43.65582" lon="6.77654">
        <ele>280</ele>
        <time>2020-06-03T11:44:35+02:00</time>
      </trkpt>
      <trkpt lat="43.65577" lon="6.77664">
        <ele>280</ele>
        <time>2020-06-03T11:44:48+02:00</time>
      </trkpt>
      <trkpt lat="43.65569" lon="6.77671">
        <ele>280</ele>
        <time>2020-06-03T11:44:59+02:00</time>
      </trkpt>
      <trkpt lat="43.6556" lon="6.77672">
        <ele>281</ele>
        <time>2020-06-03T11:45:07+02:00</time>
      </trkpt>
      <trkpt lat="43.6555" lon="6.77674">
        <ele>281</ele>
        <time>2020-06-03T11:45:16+02:00</time>
      </trkpt>
      <trkpt lat="43.65541" lon="6.77677">
        <ele>281</ele>
        <time>2020-06-03T11:45:24+02:00</time>
      </trkpt>
      <trkpt lat="43.65532" lon="6.77681">
        <ele>282</ele>
        <time>2020-06-03T11:45:36+02:00</time>
      </trkpt>
      <trkpt lat="43.65525" lon="6.77689">
        <ele>282</ele>
        <time>2020-06-03T11:45:45+02:00</time>
      </trkpt>
      <trkpt lat="43.65517" lon="6.77697">
        <ele>282</ele>
        <time>2020-06-03T11:45:53+02:00</time>
      </trkpt>
      <trkpt lat="43.65509" lon="6.77705">
        <ele>283</ele>
        <time>2020-06-03T11:46:07+02:00</time>
      </trkpt>
      <trkpt lat="43.65504" lon="6.77716">
        <ele>283</ele>
        <time>2020-06-03T11:46:19+02:00</time>
      </trkpt>
      <trkpt lat="43.65497" lon="6.77725">
        <ele>283</ele>
        <time>2020-06-03T11:46:29+02:00</time>
      </trkpt>
      <trkpt lat="43.65491" lon="6.77736">
        <ele>284</ele>
        <time>2020-06-03T11:46:46+02:00</time>
      </trkpt>
      <trkpt lat="43.65483" lon="6.77742">
        <ele>284</ele>
        <time>2020-06-03T11:46:59+02:00</time>
      </trkpt>
      <trkpt lat="43.65475" lon="6.77749">
        <ele>285</ele>
        <time>2020-06-03T11:47:08+02:00</time>
      </trkpt>
      <trkpt lat="43.65466" lon="6.77756">
        <ele>285</ele>
        <time>2020-06-03T11:47:18+02:00</time>
      </trkpt>
      <trkpt lat="43.65456" lon="6.77762">
        <ele>285</ele>
        <time>2020-06-03T11:47:26+02:00</time>
      </trkpt>
      <trkpt lat="43.65449" lon="6.77771">
        <ele>285</ele>
        <time>2020-06-03T11:47:37+02:00</time>
      </trkpt>
      <trkpt lat="43.65442" lon="6.77781">
        <ele>286</ele>
        <time>2020-06-03T11:47:51+02:00</time>
      </trkpt>
      <trkpt lat="43.65436" lon="6.7779">
        <ele>286</ele>
        <time>2020-06-03T11:48:09+02:00</time>
      </trkpt>
      <trkpt lat="43.6543" lon="6.77799">
        <ele>287</ele>
        <time>2020-06-03T11:48:19+02:00</time>
      </trkpt>
      <trkpt lat="43.65421" lon="6.77801">
        <ele>287</ele>
        <time>2020-06-03T11:48:33+02:00</time>
      </trkpt>
      <trkpt lat="43.65411" lon="6.77795">
        <ele>287</ele>
        <time>2020-06-03T11:48:45+02:00</time>
      </trkpt>
      <trkpt lat="43.65403" lon="6.77803">
        <ele>288</ele>
        <time>2020-06-03T11:48:57+02:00</time>
      </trkpt>
      <trkpt lat="43.65398" lon="6.77813">
        <ele>288</ele>
        <time>2020-06-03T11:49:08+02:00</time>
      </trkpt>
      <trkpt lat="43.65391" lon="6.77822">
        <ele>289</ele>
        <time>2020-06-03T11:49:33+02:00</time>
      </trkpt>
      <trkpt lat="43.6539" lon="6.77834">
        <ele>294</ele>
        <time>2020-06-03T11:52:10+02:00</time>
      </trkpt>
      <trkpt lat="43.65388" lon="6.77846">
        <ele>294</ele>
        <time>2020-06-03T11:52:19+02:00</time>
      </trkpt>
      <trkpt lat="43.65383" lon="6.77857">
        <ele>295</ele>
        <time>2020-06-03T11:52:34+02:00</time>
      </trkpt>
      <trkpt lat="43.65376" lon="6.77866">
        <ele>296</ele>
        <time>2020-06-03T11:52:46+02:00</time>
      </trkpt>
      <trkpt lat="43.65369" lon="6.77874">
        <ele>296</ele>
        <time>2020-06-03T11:52:55+02:00</time>
      </trkpt>
      <trkpt lat="43.65364" lon="6.77886">
        <ele>297</ele>
        <time>2020-06-03T11:53:06+02:00</time>
      </trkpt>
      <trkpt lat="43.65359" lon="6.77897">
        <ele>298</ele>
        <time>2020-06-03T11:53:22+02:00</time>
      </trkpt>
      <trkpt lat="43.65354" lon="6.77909">
        <ele>299</ele>
        <time>2020-06-03T11:53:33+02:00</time>
      </trkpt>
      <trkpt lat="43.65347" lon="6.77918">
        <ele>299</ele>
        <time>2020-06-03T11:53:44+02:00</time>
      </trkpt>
      <trkpt lat="43.65348" lon="6.77931">
        <ele>300</ele>
        <time>2020-06-03T11:54:13+02:00</time>
      </trkpt>
      <trkpt lat="43.65346" lon="6.77944">
        <ele>302</ele>
        <time>2020-06-03T11:55:55+02:00</time>
      </trkpt>
      <trkpt lat="43.65337" lon="6.77945">
        <ele>304</ele>
        <time>2020-06-03T11:56:13+02:00</time>
      </trkpt>
      <trkpt lat="43.6533" lon="6.77954">
        <ele>305</ele>
        <time>2020-06-03T11:56:31+02:00</time>
      </trkpt>
      <trkpt lat="43.65323" lon="6.77962">
        <ele>306</ele>
        <time>2020-06-03T11:56:43+02:00</time>
      </trkpt>
      <trkpt lat="43.65313" lon="6.77965">
        <ele>306</ele>
        <time>2020-06-03T11:56:54+02:00</time>
      </trkpt>
      <trkpt lat="43.65305" lon="6.77974">
        <ele>307</ele>
        <time>2020-06-03T11:57:06+02:00</time>
      </trkpt>
      <trkpt lat="43.65297" lon="6.7798">
        <ele>308</ele>
        <time>2020-06-03T11:57:17+02:00</time>
      </trkpt>
      <trkpt lat="43.6529" lon="6.77986">
        <ele>308</ele>
        <time>2020-06-03T11:57:29+02:00</time>
      </trkpt>
      <trkpt lat="43.6528" lon="6.77991">
        <ele>309</ele>
        <time>2020-06-03T11:57:48+02:00</time>
      </trkpt>
      <trkpt lat="43.65272" lon="6.77998">
        <ele>310</ele>
        <time>2020-06-03T11:58:00+02:00</time>
      </trkpt>
      <trkpt lat="43.65262" lon="6.77999">
        <ele>310</ele>
        <time>2020-06-03T11:58:14+02:00</time>
      </trkpt>
      <trkpt lat="43.65254" lon="6.78008">
        <ele>311</ele>
        <time>2020-06-03T11:58:29+02:00</time>
      </trkpt>
      <trkpt lat="43.65248" lon="6.78017">
        <ele>311</ele>
        <time>2020-06-03T11:58:40+02:00</time>
      </trkpt>
      <trkpt lat="43.65238" lon="6.78016">
        <ele>312</ele>
        <time>2020-06-03T11:58:52+02:00</time>
      </trkpt>
      <trkpt lat="43.65232" lon="6.78025">
        <ele>313</ele>
        <time>2020-06-03T11:59:07+02:00</time>
      </trkpt>
      <trkpt lat="43.65225" lon="6.78034">
        <ele>313</ele>
        <time>2020-06-03T11:59:18+02:00</time>
      </trkpt>
      <trkpt lat="43.65216" lon="6.78034">
        <ele>314</ele>
        <time>2020-06-03T11:59:27+02:00</time>
      </trkpt>
      <trkpt lat="43.65207" lon="6.78032">
        <ele>315</ele>
        <time>2020-06-03T11:59:56+02:00</time>
      </trkpt>
      <trkpt lat="43.65201" lon="6.78043">
        <ele>318</ele>
        <time>2020-06-03T12:01:33+02:00</time>
      </trkpt>
      <trkpt lat="43.65192" lon="6.78049">
        <ele>320</ele>
        <time>2020-06-03T12:01:49+02:00</time>
      </trkpt>
      <trkpt lat="43.65182" lon="6.7805">
        <ele>321</ele>
        <time>2020-06-03T12:02:01+02:00</time>
      </trkpt>
      <trkpt lat="43.65173" lon="6.78054">
        <ele>322</ele>
        <time>2020-06-03T12:02:12+02:00</time>
      </trkpt>
      <trkpt lat="43.65164" lon="6.78057">
        <ele>324</ele>
        <time>2020-06-03T12:02:28+02:00</time>
      </trkpt>
      <trkpt lat="43.65155" lon="6.78061">
        <ele>325</ele>
        <time>2020-06-03T12:02:44+02:00</time>
      </trkpt>
      <trkpt lat="43.65147" lon="6.78068">
        <ele>327</ele>
        <time>2020-06-03T12:03:02+02:00</time>
      </trkpt>
      <trkpt lat="43.65145" lon="6.7808">
        <ele>331</ele>
        <time>2020-06-03T12:04:28+02:00</time>
      </trkpt>
      <trkpt lat="43.65137" lon="6.78076">
        <ele>333</ele>
        <time>2020-06-03T12:04:52+02:00</time>
      </trkpt>
      <trkpt lat="43.65131" lon="6.78085">
        <ele>334</ele>
        <time>2020-06-03T12:05:06+02:00</time>
      </trkpt>
      <trkpt lat="43.65122" lon="6.78089">
        <ele>335</ele>
        <time>2020-06-03T12:05:18+02:00</time>
      </trkpt>
      <trkpt lat="43.65113" lon="6.78091">
        <ele>336</ele>
        <time>2020-06-03T12:05:34+02:00</time>
      </trkpt>
      <trkpt lat="43.65104" lon="6.78094">
        <ele>338</ele>
        <time>2020-06-03T12:07:04+02:00</time>
      </trkpt>
      <trkpt lat="43.65095" lon="6.78096">
        <ele>342</ele>
        <time>2020-06-03T12:08:57+02:00</time>
      </trkpt>
      <trkpt lat="43.65086" lon="6.78097">
        <ele>343</ele>
        <time>2020-06-03T12:09:13+02:00</time>
      </trkpt>
      <trkpt lat="43.65077" lon="6.78093">
        <ele>345</ele>
        <time>2020-06-03T12:09:50+02:00</time>
      </trkpt>
      <trkpt lat="43.65067" lon="6.78095">
        <ele>347</ele>
        <time>2020-06-03T12:10:30+02:00</time>
      </trkpt>
      <trkpt lat="43.65058" lon="6.78094">
        <ele>348</ele>
        <time>2020-06-03T12:10:47+02:00</time>
      </trkpt>
      <trkpt lat="43.65049" lon="6.78096">
        <ele>349</ele>
        <time>2020-06-03T12:11:05+02:00</time>
      </trkpt>
      <trkpt lat="43.6504" lon="6.781">
        <ele>350</ele>
        <time>2020-06-03T12:11:28+02:00</time>
      </trkpt>
      <trkpt lat="43.65031" lon="6.78101">
        <ele>352</ele>
        <time>2020-06-03T12:12:24+02:00</time>
      </trkpt>
      <trkpt lat="43.65022" lon="6.78103">
        <ele>354</ele>
        <time>2020-06-03T12:12:42+02:00</time>
      </trkpt>
      <trkpt lat="43.65012" lon="6.78106">
        <ele>363</ele>
        <time>2020-06-03T12:16:07+02:00</time>
      </trkpt>
      <trkpt lat="43.65021" lon="6.78099">
        <ele>365</ele>
        <time>2020-06-03T12:16:16+02:00</time>
      </trkpt>
      <trkpt lat="43.65028" lon="6.78091">
        <ele>369</ele>
        <time>2020-06-03T12:16:39+02:00</time>
      </trkpt>
      <trkpt lat="43.65037" lon="6.78084">
        <ele>370</ele>
        <time>2020-06-03T12:16:55+02:00</time>
      </trkpt>
      <trkpt lat="43.65045" lon="6.78078">
        <ele>371</ele>
        <time>2020-06-03T12:17:09+02:00</time>
      </trkpt>
      <trkpt lat="43.65054" lon="6.78073">
        <ele>372</ele>
        <time>2020-06-03T12:17:28+02:00</time>
      </trkpt>
      <trkpt lat="43.65044" lon="6.78071">
        <ele>374</ele>
        <time>2020-06-03T12:17:59+02:00</time>
      </trkpt>
      <trkpt lat="43.65036" lon="6.78066">
        <ele>374</ele>
        <time>2020-06-03T12:18:16+02:00</time>
      </trkpt>
      <trkpt lat="43.65026" lon="6.78066">
        <ele>375</ele>
        <time>2020-06-03T12:18:25+02:00</time>
      </trkpt>
      <trkpt lat="43.65017" lon="6.78062">
        <ele>375</ele>
        <time>2020-06-03T12:18:42+02:00</time>
      </trkpt>
      <trkpt lat="43.65009" lon="6.78066">
        <ele>376</ele>
        <time>2020-06-03T12:19:50+02:00</time>
      </trkpt>
      <trkpt lat="43.65" lon="6.78063">
        <ele>376</ele>
        <time>2020-06-03T12:20:04+02:00</time>
      </trkpt>
      <trkpt lat="43.64991" lon="6.78061">
        <ele>377</ele>
        <time>2020-06-03T12:20:25+02:00</time>
      </trkpt>
      <trkpt lat="43.64982" lon="6.78055">
        <ele>377</ele>
        <time>2020-06-03T12:20:34+02:00</time>
      </trkpt>
      <trkpt lat="43.64973" lon="6.7805">
        <ele>378</ele>
        <time>2020-06-03T12:21:17+02:00</time>
      </trkpt>
      <trkpt lat="43.64966" lon="6.78041">
        <ele>379</ele>
        <time>2020-06-03T12:21:35+02:00</time>
      </trkpt>
      <trkpt lat="43.6496" lon="6.78031">
        <ele>380</ele>
        <time>2020-06-03T12:22:39+02:00</time>
      </trkpt>
      <trkpt lat="43.64952" lon="6.78027">
        <ele>381</ele>
        <time>2020-06-03T12:22:50+02:00</time>
      </trkpt>
      <trkpt lat="43.64943" lon="6.78023">
        <ele>381</ele>
        <time>2020-06-03T12:23:07+02:00</time>
      </trkpt>
      <trkpt lat="43.64933" lon="6.78021">
        <ele>382</ele>
        <time>2020-06-03T12:23:23+02:00</time>
      </trkpt>
      <trkpt lat="43.64923" lon="6.78016">
        <ele>382</ele>
        <time>2020-06-03T12:23:37+02:00</time>
      </trkpt>
      <trkpt lat="43.64915" lon="6.78013">
        <ele>383</ele>
        <time>2020-06-03T12:23:52+02:00</time>
      </trkpt>
      <trkpt lat="43.64904" lon="6.78015">
        <ele>384</ele>
        <time>2020-06-03T12:24:14+02:00</time>
      </trkpt>
      <trkpt lat="43.64896" lon="6.78009">
        <ele>384</ele>
        <time>2020-06-03T12:24:21+02:00</time>
      </trkpt>
      <trkpt lat="43.64887" lon="6.78011">
        <ele>385</ele>
        <time>2020-06-03T12:25:21+02:00</time>
      </trkpt>
      <trkpt lat="43.64878" lon="6.78009">
        <ele>385</ele>
        <time>2020-06-03T12:25:45+02:00</time>
      </trkpt>
      <trkpt lat="43.6487" lon="6.78004">
        <ele>386</ele>
        <time>2020-06-03T12:26:03+02:00</time>
      </trkpt>
      <trkpt lat="43.64861" lon="6.78001">
        <ele>386</ele>
        <time>2020-06-03T12:26:18+02:00</time>
      </trkpt>
      <trkpt lat="43.64851" lon="6.78003">
        <ele>386</ele>
        <time>2020-06-03T12:26:28+02:00</time>
      </trkpt>
      <trkpt lat="43.64843" lon="6.7801">
        <ele>386</ele>
        <time>2020-06-03T12:26:38+02:00</time>
      </trkpt>
      <trkpt lat="43.64834" lon="6.78006">
        <ele>386</ele>
        <time>2020-06-03T12:26:52+02:00</time>
      </trkpt>
      <trkpt lat="43.64826" lon="6.78">
        <ele>387</ele>
        <time>2020-06-03T12:27:08+02:00</time>
      </trkpt>
      <trkpt lat="43.64818" lon="6.77994">
        <ele>387</ele>
        <time>2020-06-03T12:27:25+02:00</time>
      </trkpt>
      <trkpt lat="43.6481" lon="6.77987">
        <ele>387</ele>
        <time>2020-06-03T12:28:32+02:00</time>
      </trkpt>
      <trkpt lat="43.64803" lon="6.77993">
        <ele>396</ele>
        <time>2020-06-03T12:31:57+02:00</time>
      </trkpt>
      <trkpt lat="43.64793" lon="6.77995">
        <ele>402</ele>
        <time>2020-06-03T12:32:18+02:00</time>
      </trkpt>
      <trkpt lat="43.64784" lon="6.78">
        <ele>405</ele>
        <time>2020-06-03T12:32:30+02:00</time>
      </trkpt>
      <trkpt lat="43.64776" lon="6.78008">
        <ele>408</ele>
        <time>2020-06-03T12:32:46+02:00</time>
      </trkpt>
      <trkpt lat="43.64766" lon="6.7801">
        <ele>410</ele>
        <time>2020-06-03T12:32:56+02:00</time>
      </trkpt>
      <trkpt lat="43.6476" lon="6.78021">
        <ele>411</ele>
        <time>2020-06-03T12:33:08+02:00</time>
      </trkpt>
      <trkpt lat="43.64752" lon="6.7803">
        <ele>413</ele>
        <time>2020-06-03T12:33:20+02:00</time>
      </trkpt>
      <trkpt lat="43.64744" lon="6.78037">
        <ele>415</ele>
        <time>2020-06-03T12:33:35+02:00</time>
      </trkpt>
      <trkpt lat="43.64735" lon="6.78037">
        <ele>416</ele>
        <time>2020-06-03T12:33:48+02:00</time>
      </trkpt>
      <trkpt lat="43.64726" lon="6.78033">
        <ele>418</ele>
        <time>2020-06-03T12:34:05+02:00</time>
      </trkpt>
      <trkpt lat="43.64718" lon="6.78027">
        <ele>418</ele>
        <time>2020-06-03T12:34:18+02:00</time>
      </trkpt>
      <trkpt lat="43.64723" lon="6.78016">
        <ele>422</ele>
        <time>2020-06-03T12:35:06+02:00</time>
      </trkpt>
      <trkpt lat="43.64716" lon="6.78006">
        <ele>423</ele>
        <time>2020-06-03T12:35:24+02:00</time>
      </trkpt>
      <trkpt lat="43.64707" lon="6.78012">
        <ele>426</ele>
        <time>2020-06-03T12:36:02+02:00</time>
      </trkpt>
      <trkpt lat="43.64698" lon="6.78012">
        <ele>428</ele>
        <time>2020-06-03T12:36:15+02:00</time>
      </trkpt>
      <trkpt lat="43.64688" lon="6.78014">
        <ele>429</ele>
        <time>2020-06-03T12:36:24+02:00</time>
      </trkpt>
      <trkpt lat="43.64678" lon="6.78015">
        <ele>431</ele>
        <time>2020-06-03T12:36:34+02:00</time>
      </trkpt>
      <trkpt lat="43.64671" lon="6.78008">
        <ele>433</ele>
        <time>2020-06-03T12:36:46+02:00</time>
      </trkpt>
      <trkpt lat="43.64671" lon="6.77991">
        <ele>434</ele>
        <time>2020-06-03T12:37:24+02:00</time>
      </trkpt>
      <trkpt lat="43.64659" lon="6.7799">
        <ele>434</ele>
        <time>2020-06-03T12:37:25+02:00</time>
      </trkpt>
      <trkpt lat="43.64649" lon="6.77992">
        <ele>434</ele>
        <time>2020-06-03T12:37:26+02:00</time>
      </trkpt>
      <trkpt lat="43.64657" lon="6.78002">
        <ele>435</ele>
        <time>2020-06-03T12:37:42+02:00</time>
      </trkpt>
      <trkpt lat="43.64666" lon="6.77997">
        <ele>437</ele>
        <time>2020-06-03T12:37:55+02:00</time>
      </trkpt>
      <trkpt lat="43.64669" lon="6.77985">
        <ele>439</ele>
        <time>2020-06-03T12:38:32+02:00</time>
      </trkpt>
      <trkpt lat="43.64672" lon="6.77973">
        <ele>441</ele>
        <time>2020-06-03T12:38:51+02:00</time>
      </trkpt>
      <trkpt lat="43.64676" lon="6.77961">
        <ele>442</ele>
        <time>2020-06-03T12:38:59+02:00</time>
      </trkpt>
      <trkpt lat="43.6468" lon="6.77949">
        <ele>444</ele>
        <time>2020-06-03T12:39:09+02:00</time>
      </trkpt>
      <trkpt lat="43.64684" lon="6.77937">
        <ele>445</ele>
        <time>2020-06-03T12:39:19+02:00</time>
      </trkpt>
      <trkpt lat="43.64686" lon="6.77923">
        <ele>446</ele>
        <time>2020-06-03T12:39:29+02:00</time>
      </trkpt>
      <trkpt lat="43.64687" lon="6.7791">
        <ele>447</ele>
        <time>2020-06-03T12:39:38+02:00</time>
      </trkpt>
      <trkpt lat="43.64687" lon="6.77897">
        <ele>448</ele>
        <time>2020-06-03T12:39:47+02:00</time>
      </trkpt>
      <trkpt lat="43.64688" lon="6.77883">
        <ele>448</ele>
        <time>2020-06-03T12:39:55+02:00</time>
      </trkpt>
      <trkpt lat="43.64689" lon="6.7787">
        <ele>449</ele>
        <time>2020-06-03T12:40:05+02:00</time>
      </trkpt>
      <trkpt lat="43.64686" lon="6.77858">
        <ele>450</ele>
        <time>2020-06-03T12:40:19+02:00</time>
      </trkpt>
      <trkpt lat="43.64679" lon="6.7785">
        <ele>451</ele>
        <time>2020-06-03T12:40:43+02:00</time>
      </trkpt>
      <trkpt lat="43.64676" lon="6.77838">
        <ele>452</ele>
        <time>2020-06-03T12:41:03+02:00</time>
      </trkpt>
      <trkpt lat="43.64669" lon="6.77829">
        <ele>453</ele>
        <time>2020-06-03T12:41:34+02:00</time>
      </trkpt>
      <trkpt lat="43.6466" lon="6.77829">
        <ele>459</ele>
        <time>2020-06-03T12:53:58+02:00</time>
      </trkpt>
      <trkpt lat="43.64669" lon="6.7783">
        <ele>461</ele>
        <time>2020-06-03T13:01:17+02:00</time>
      </trkpt>
      <trkpt lat="43.64671" lon="6.77842">
        <ele>462</ele>
        <time>2020-06-03T13:04:52+02:00</time>
      </trkpt>
      <trkpt lat="43.64672" lon="6.77858">
        <ele>462</ele>
        <time>2020-06-03T13:05:28+02:00</time>
      </trkpt>
      <trkpt lat="43.64679" lon="6.77868">
        <ele>462</ele>
        <time>2020-06-03T13:05:31+02:00</time>
      </trkpt>
      <trkpt lat="43.64679" lon="6.77855">
        <ele>462</ele>
        <time>2020-06-03T13:06:11+02:00</time>
      </trkpt>
      <trkpt lat="43.64676" lon="6.77843">
        <ele>462</ele>
        <time>2020-06-03T13:07:06+02:00</time>
      </trkpt>
      <trkpt lat="43.64671" lon="6.77833">
        <ele>462</ele>
        <time>2020-06-03T13:08:02+02:00</time>
      </trkpt>
      <trkpt lat="43.64661" lon="6.77831">
        <ele>462</ele>
        <time>2020-06-03T13:08:23+02:00</time>
      </trkpt>
      <trkpt lat="43.64654" lon="6.77822">
        <ele>462</ele>
        <time>2020-06-03T13:08:30+02:00</time>
      </trkpt>
      <trkpt lat="43.64649" lon="6.77811">
        <ele>462</ele>
        <time>2020-06-03T13:08:43+02:00</time>
      </trkpt>
      <trkpt lat="43.64644" lon="6.77799">
        <ele>462</ele>
        <time>2020-06-03T13:08:51+02:00</time>
      </trkpt>
      <trkpt lat="43.64635" lon="6.77796">
        <ele>462</ele>
        <time>2020-06-03T13:09:11+02:00</time>
      </trkpt>
      <trkpt lat="43.64628" lon="6.77787">
        <ele>462</ele>
        <time>2020-06-03T13:09:23+02:00</time>
      </trkpt>
      <trkpt lat="43.64619" lon="6.77784">
        <ele>462</ele>
        <time>2020-06-03T13:09:36+02:00</time>
      </trkpt>
      <trkpt lat="43.64609" lon="6.77785">
        <ele>462</ele>
        <time>2020-06-03T13:09:50+02:00</time>
      </trkpt>
      <trkpt lat="43.646" lon="6.7779">
        <ele>462</ele>
        <time>2020-06-03T13:10:07+02:00</time>
      </trkpt>
      <trkpt lat="43.64592" lon="6.77797">
        <ele>462</ele>
        <time>2020-06-03T13:10:18+02:00</time>
      </trkpt>
      <trkpt lat="43.64587" lon="6.77809">
        <ele>462</ele>
        <time>2020-06-03T13:10:28+02:00</time>
      </trkpt>
      <trkpt lat="43.6458" lon="6.77816">
        <ele>462</ele>
        <time>2020-06-03T13:10:42+02:00</time>
      </trkpt>
      <trkpt lat="43.64572" lon="6.77823">
        <ele>462</ele>
        <time>2020-06-03T13:10:53+02:00</time>
      </trkpt>
      <trkpt lat="43.64563" lon="6.77826">
        <ele>462</ele>
        <time>2020-06-03T13:11:09+02:00</time>
      </trkpt>
      <trkpt lat="43.64555" lon="6.77832">
        <ele>462</ele>
        <time>2020-06-03T13:11:16+02:00</time>
      </trkpt>
      <trkpt lat="43.64547" lon="6.7784">
        <ele>462</ele>
        <time>2020-06-03T13:11:30+02:00</time>
      </trkpt>
      <trkpt lat="43.64542" lon="6.77849">
        <ele>462</ele>
        <time>2020-06-03T13:11:41+02:00</time>
      </trkpt>
      <trkpt lat="43.64535" lon="6.77859">
        <ele>462</ele>
        <time>2020-06-03T13:12:00+02:00</time>
      </trkpt>
      <trkpt lat="43.64526" lon="6.77866">
        <ele>462</ele>
        <time>2020-06-03T13:12:11+02:00</time>
      </trkpt>
      <trkpt lat="43.64523" lon="6.77878">
        <ele>462</ele>
        <time>2020-06-03T13:13:07+02:00</time>
      </trkpt>
      <trkpt lat="43.64513" lon="6.7788">
        <ele>462</ele>
        <time>2020-06-03T13:13:17+02:00</time>
      </trkpt>
      <trkpt lat="43.64511" lon="6.77893">
        <ele>462</ele>
        <time>2020-06-03T13:14:10+02:00</time>
      </trkpt>
      <trkpt lat="43.64501" lon="6.77892">
        <ele>462</ele>
        <time>2020-06-03T13:14:18+02:00</time>
      </trkpt>
      <trkpt lat="43.64496" lon="6.77903">
        <ele>462</ele>
        <time>2020-06-03T13:14:29+02:00</time>
      </trkpt>
      <trkpt lat="43.64488" lon="6.77908">
        <ele>461</ele>
        <time>2020-06-03T13:14:42+02:00</time>
      </trkpt>
      <trkpt lat="43.64478" lon="6.77905">
        <ele>461</ele>
        <time>2020-06-03T13:14:53+02:00</time>
      </trkpt>
      <trkpt lat="43.64469" lon="6.77906">
        <ele>461</ele>
        <time>2020-06-03T13:15:13+02:00</time>
      </trkpt>
      <trkpt lat="43.64463" lon="6.77915">
        <ele>461</ele>
        <time>2020-06-03T13:15:24+02:00</time>
      </trkpt>
      <trkpt lat="43.64454" lon="6.77918">
        <ele>461</ele>
        <time>2020-06-03T13:15:37+02:00</time>
      </trkpt>
      <trkpt lat="43.64445" lon="6.7792">
        <ele>461</ele>
        <time>2020-06-03T13:15:48+02:00</time>
      </trkpt>
      <trkpt lat="43.64439" lon="6.77911">
        <ele>461</ele>
        <time>2020-06-03T13:15:58+02:00</time>
      </trkpt>
      <trkpt lat="43.64447" lon="6.77916">
        <ele>460</ele>
        <time>2020-06-03T13:18:40+02:00</time>
      </trkpt>
      <trkpt lat="43.64438" lon="6.77916">
        <ele>460</ele>
        <time>2020-06-03T13:19:35+02:00</time>
      </trkpt>
      <trkpt lat="43.6443" lon="6.77921">
        <ele>460</ele>
        <time>2020-06-03T13:19:45+02:00</time>
      </trkpt>
      <trkpt lat="43.64423" lon="6.7793">
        <ele>460</ele>
        <time>2020-06-03T13:19:54+02:00</time>
      </trkpt>
      <trkpt lat="43.64414" lon="6.77936">
        <ele>460</ele>
        <time>2020-06-03T13:20:06+02:00</time>
      </trkpt>
      <trkpt lat="43.64404" lon="6.77939">
        <ele>459</ele>
        <time>2020-06-03T13:20:17+02:00</time>
      </trkpt>
      <trkpt lat="43.64395" lon="6.77936">
        <ele>459</ele>
        <time>2020-06-03T13:20:28+02:00</time>
      </trkpt>
      <trkpt lat="43.64386" lon="6.77933">
        <ele>459</ele>
        <time>2020-06-03T13:20:47+02:00</time>
      </trkpt>
      <trkpt lat="43.64377" lon="6.77931">
        <ele>459</ele>
        <time>2020-06-03T13:21:18+02:00</time>
      </trkpt>
      <trkpt lat="43.6437" lon="6.77922">
        <ele>459</ele>
        <time>2020-06-03T13:21:30+02:00</time>
      </trkpt>
      <trkpt lat="43.64363" lon="6.77913">
        <ele>458</ele>
        <time>2020-06-03T13:21:38+02:00</time>
      </trkpt>
      <trkpt lat="43.64361" lon="6.779">
        <ele>457</ele>
        <time>2020-06-03T13:23:31+02:00</time>
      </trkpt>
      <trkpt lat="43.64358" lon="6.77886">
        <ele>457</ele>
        <time>2020-06-03T13:23:36+02:00</time>
      </trkpt>
      <trkpt lat="43.64358" lon="6.77874">
        <ele>456</ele>
        <time>2020-06-03T13:23:43+02:00</time>
      </trkpt>
      <trkpt lat="43.64359" lon="6.7786">
        <ele>456</ele>
        <time>2020-06-03T13:23:54+02:00</time>
      </trkpt>
      <trkpt lat="43.64359" lon="6.77848">
        <ele>455</ele>
        <time>2020-06-03T13:24:12+02:00</time>
      </trkpt>
      <trkpt lat="43.64362" lon="6.77835">
        <ele>455</ele>
        <time>2020-06-03T13:24:22+02:00</time>
      </trkpt>
      <trkpt lat="43.6436" lon="6.77821">
        <ele>454</ele>
        <time>2020-06-03T13:24:31+02:00</time>
      </trkpt>
      <trkpt lat="43.64362" lon="6.77809">
        <ele>454</ele>
        <time>2020-06-03T13:24:39+02:00</time>
      </trkpt>
      <trkpt lat="43.64364" lon="6.77797">
        <ele>454</ele>
        <time>2020-06-03T13:24:51+02:00</time>
      </trkpt>
      <trkpt lat="43.64362" lon="6.77784">
        <ele>453</ele>
        <time>2020-06-03T13:25:04+02:00</time>
      </trkpt>
      <trkpt lat="43.64362" lon="6.77771">
        <ele>453</ele>
        <time>2020-06-03T13:25:12+02:00</time>
      </trkpt>
      <trkpt lat="43.64362" lon="6.77759">
        <ele>453</ele>
        <time>2020-06-03T13:25:22+02:00</time>
      </trkpt>
      <trkpt lat="43.64361" lon="6.77746">
        <ele>452</ele>
        <time>2020-06-03T13:25:31+02:00</time>
      </trkpt>
      <trkpt lat="43.6436" lon="6.77733">
        <ele>452</ele>
        <time>2020-06-03T13:25:38+02:00</time>
      </trkpt>
      <trkpt lat="43.64355" lon="6.77722">
        <ele>452</ele>
        <time>2020-06-03T13:25:45+02:00</time>
      </trkpt>
      <trkpt lat="43.64355" lon="6.77708">
        <ele>452</ele>
        <time>2020-06-03T13:25:54+02:00</time>
      </trkpt>
      <trkpt lat="43.64353" lon="6.77695">
        <ele>452</ele>
        <time>2020-06-03T13:26:07+02:00</time>
      </trkpt>
      <trkpt lat="43.64347" lon="6.77686">
        <ele>451</ele>
        <time>2020-06-03T13:26:17+02:00</time>
      </trkpt>
      <trkpt lat="43.64341" lon="6.77675">
        <ele>451</ele>
        <time>2020-06-03T13:26:32+02:00</time>
      </trkpt>
      <trkpt lat="43.64337" lon="6.77687">
        <ele>450</ele>
        <time>2020-06-03T13:27:05+02:00</time>
      </trkpt>
      <trkpt lat="43.64333" lon="6.77699">
        <ele>450</ele>
        <time>2020-06-03T13:27:23+02:00</time>
      </trkpt>
      <trkpt lat="43.6433" lon="6.77711">
        <ele>450</ele>
        <time>2020-06-03T13:27:32+02:00</time>
      </trkpt>
      <trkpt lat="43.64324" lon="6.77721">
        <ele>450</ele>
        <time>2020-06-03T13:27:44+02:00</time>
      </trkpt>
      <trkpt lat="43.64321" lon="6.77732">
        <ele>449</ele>
        <time>2020-06-03T13:27:54+02:00</time>
      </trkpt>
      <trkpt lat="43.64327" lon="6.77723">
        <ele>449</ele>
        <time>2020-06-03T13:28:08+02:00</time>
      </trkpt>
      <trkpt lat="43.64334" lon="6.7773">
        <ele>449</ele>
        <time>2020-06-03T13:28:12+02:00</time>
      </trkpt>
      <trkpt lat="43.64338" lon="6.77742">
        <ele>448</ele>
        <time>2020-06-03T13:28:19+02:00</time>
      </trkpt>
      <trkpt lat="43.64341" lon="6.77754">
        <ele>448</ele>
        <time>2020-06-03T13:28:21+02:00</time>
      </trkpt>
      <trkpt lat="43.64332" lon="6.77759">
        <ele>448</ele>
        <time>2020-06-03T13:28:30+02:00</time>
      </trkpt>
      <trkpt lat="43.64325" lon="6.77768">
        <ele>448</ele>
        <time>2020-06-03T13:28:39+02:00</time>
      </trkpt>
      <trkpt lat="43.64316" lon="6.77765">
        <ele>448</ele>
        <time>2020-06-03T13:28:59+02:00</time>
      </trkpt>
      <trkpt lat="43.64313" lon="6.77753">
        <ele>446</ele>
        <time>2020-06-03T13:32:15+02:00</time>
      </trkpt>
      <trkpt lat="43.64324" lon="6.77752">
        <ele>444</ele>
        <time>2020-06-03T13:34:28+02:00</time>
      </trkpt>
      <trkpt lat="43.64317" lon="6.77761">
        <ele>444</ele>
        <time>2020-06-03T13:34:34+02:00</time>
      </trkpt>
      <trkpt lat="43.64314" lon="6.77773">
        <ele>444</ele>
        <time>2020-06-03T13:34:40+02:00</time>
      </trkpt>
      <trkpt lat="43.64306" lon="6.7778">
        <ele>444</ele>
        <time>2020-06-03T13:34:44+02:00</time>
      </trkpt>
      <trkpt lat="43.64299" lon="6.77789">
        <ele>444</ele>
        <time>2020-06-03T13:34:50+02:00</time>
      </trkpt>
      <trkpt lat="43.64291" lon="6.77797">
        <ele>443</ele>
        <time>2020-06-03T13:35:00+02:00</time>
      </trkpt>
      <trkpt lat="43.64282" lon="6.77803">
        <ele>443</ele>
        <time>2020-06-03T13:35:12+02:00</time>
      </trkpt>
      <trkpt lat="43.64277" lon="6.77814">
        <ele>443</ele>
        <time>2020-06-03T13:35:22+02:00</time>
      </trkpt>
      <trkpt lat="43.64273" lon="6.77825">
        <ele>443</ele>
        <time>2020-06-03T13:35:43+02:00</time>
      </trkpt>
      <trkpt lat="43.64271" lon="6.77838">
        <ele>442</ele>
        <time>2020-06-03T13:36:00+02:00</time>
      </trkpt>
      <trkpt lat="43.64264" lon="6.77846">
        <ele>442</ele>
        <time>2020-06-03T13:36:07+02:00</time>
      </trkpt>
      <trkpt lat="43.64255" lon="6.7785">
        <ele>442</ele>
        <time>2020-06-03T13:36:13+02:00</time>
      </trkpt>
      <trkpt lat="43.64247" lon="6.77858">
        <ele>442</ele>
        <time>2020-06-03T13:36:22+02:00</time>
      </trkpt>
      <trkpt lat="43.64242" lon="6.7787">
        <ele>442</ele>
        <time>2020-06-03T13:36:31+02:00</time>
      </trkpt>
      <trkpt lat="43.64235" lon="6.77877">
        <ele>442</ele>
        <time>2020-06-03T13:36:46+02:00</time>
      </trkpt>
      <trkpt lat="43.64226" lon="6.77882">
        <ele>442</ele>
        <time>2020-06-03T13:36:56+02:00</time>
      </trkpt>
      <trkpt lat="43.6422" lon="6.77891">
        <ele>441</ele>
        <time>2020-06-03T13:37:08+02:00</time>
      </trkpt>
      <trkpt lat="43.64217" lon="6.77903">
        <ele>441</ele>
        <time>2020-06-03T13:37:20+02:00</time>
      </trkpt>
      <trkpt lat="43.64209" lon="6.77911">
        <ele>441</ele>
        <time>2020-06-03T13:37:41+02:00</time>
      </trkpt>
      <trkpt lat="43.64201" lon="6.77917">
        <ele>441</ele>
        <time>2020-06-03T13:37:53+02:00</time>
      </trkpt>
      <trkpt lat="43.64196" lon="6.77928">
        <ele>440</ele>
        <time>2020-06-03T13:38:03+02:00</time>
      </trkpt>
      <trkpt lat="43.64191" lon="6.7794">
        <ele>440</ele>
        <time>2020-06-03T13:38:11+02:00</time>
      </trkpt>
      <trkpt lat="43.6419" lon="6.77953">
        <ele>440</ele>
        <time>2020-06-03T13:38:20+02:00</time>
      </trkpt>
      <trkpt lat="43.64184" lon="6.77962">
        <ele>440</ele>
        <time>2020-06-03T13:39:00+02:00</time>
      </trkpt>
      <trkpt lat="43.64177" lon="6.77971">
        <ele>440</ele>
        <time>2020-06-03T13:39:13+02:00</time>
      </trkpt>
      <trkpt lat="43.64169" lon="6.77978">
        <ele>440</ele>
        <time>2020-06-03T13:39:22+02:00</time>
      </trkpt>
      <trkpt lat="43.64164" lon="6.7799">
        <ele>439</ele>
        <time>2020-06-03T13:39:39+02:00</time>
      </trkpt>
      <trkpt lat="43.64156" lon="6.77996">
        <ele>439</ele>
        <time>2020-06-03T13:39:44+02:00</time>
      </trkpt>
      <trkpt lat="43.64147" lon="6.78002">
        <ele>439</ele>
        <time>2020-06-03T13:39:53+02:00</time>
      </trkpt>
      <trkpt lat="43.64138" lon="6.78004">
        <ele>439</ele>
        <time>2020-06-03T13:40:00+02:00</time>
      </trkpt>
      <trkpt lat="43.64129" lon="6.78006">
        <ele>439</ele>
        <time>2020-06-03T13:40:08+02:00</time>
      </trkpt>
      <trkpt lat="43.6412" lon="6.7801">
        <ele>439</ele>
        <time>2020-06-03T13:40:17+02:00</time>
      </trkpt>
      <trkpt lat="43.64112" lon="6.78018">
        <ele>439</ele>
        <time>2020-06-03T13:40:27+02:00</time>
      </trkpt>
      <trkpt lat="43.64111" lon="6.78031">
        <ele>439</ele>
        <time>2020-06-03T13:40:37+02:00</time>
      </trkpt>
      <trkpt lat="43.64106" lon="6.78042">
        <ele>438</ele>
        <time>2020-06-03T13:40:47+02:00</time>
      </trkpt>
      <trkpt lat="43.64098" lon="6.78048">
        <ele>438</ele>
        <time>2020-06-03T13:40:58+02:00</time>
      </trkpt>
      <trkpt lat="43.64088" lon="6.78054">
        <ele>437</ele>
        <time>2020-06-03T13:41:31+02:00</time>
      </trkpt>
      <trkpt lat="43.6408" lon="6.78061">
        <ele>437</ele>
        <time>2020-06-03T13:41:40+02:00</time>
      </trkpt>
      <trkpt lat="43.64072" lon="6.78068">
        <ele>437</ele>
        <time>2020-06-03T13:41:49+02:00</time>
      </trkpt>
      <trkpt lat="43.64066" lon="6.78078">
        <ele>437</ele>
        <time>2020-06-03T13:42:01+02:00</time>
      </trkpt>
      <trkpt lat="43.64061" lon="6.78088">
        <ele>437</ele>
        <time>2020-06-03T13:42:11+02:00</time>
      </trkpt>
      <trkpt lat="43.64054" lon="6.78099">
        <ele>437</ele>
        <time>2020-06-03T13:42:16+02:00</time>
      </trkpt>
      <trkpt lat="43.64048" lon="6.78109">
        <ele>436</ele>
        <time>2020-06-03T13:42:26+02:00</time>
      </trkpt>
      <trkpt lat="43.64041" lon="6.78116">
        <ele>436</ele>
        <time>2020-06-03T13:42:34+02:00</time>
      </trkpt>
      <trkpt lat="43.64033" lon="6.78124">
        <ele>436</ele>
        <time>2020-06-03T13:42:42+02:00</time>
      </trkpt>
      <trkpt lat="43.64026" lon="6.78132">
        <ele>436</ele>
        <time>2020-06-03T13:42:51+02:00</time>
      </trkpt>
      <trkpt lat="43.64019" lon="6.78141">
        <ele>436</ele>
        <time>2020-06-03T13:42:58+02:00</time>
      </trkpt>
      <trkpt lat="43.64012" lon="6.78149">
        <ele>436</ele>
        <time>2020-06-03T13:43:06+02:00</time>
      </trkpt>
      <trkpt lat="43.64007" lon="6.7816">
        <ele>435</ele>
        <time>2020-06-03T13:43:34+02:00</time>
      </trkpt>
      <trkpt lat="43.63998" lon="6.78163">
        <ele>435</ele>
        <time>2020-06-03T13:43:42+02:00</time>
      </trkpt>
      <trkpt lat="43.63988" lon="6.78168">
        <ele>435</ele>
        <time>2020-06-03T13:43:49+02:00</time>
      </trkpt>
      <trkpt lat="43.63982" lon="6.78177">
        <ele>435</ele>
        <time>2020-06-03T13:43:55+02:00</time>
      </trkpt>
      <trkpt lat="43.63976" lon="6.78187">
        <ele>435</ele>
        <time>2020-06-03T13:44:04+02:00</time>
      </trkpt>
      <trkpt lat="43.63973" lon="6.78199">
        <ele>435</ele>
        <time>2020-06-03T13:44:09+02:00</time>
      </trkpt>
      <trkpt lat="43.63974" lon="6.78212">
        <ele>435</ele>
        <time>2020-06-03T13:44:16+02:00</time>
      </trkpt>
      <trkpt lat="43.63974" lon="6.78227">
        <ele>434</ele>
        <time>2020-06-03T13:44:28+02:00</time>
      </trkpt>
      <trkpt lat="43.63971" lon="6.78239">
        <ele>434</ele>
        <time>2020-06-03T13:44:35+02:00</time>
      </trkpt>
      <trkpt lat="43.63974" lon="6.78253">
        <ele>434</ele>
        <time>2020-06-03T13:44:46+02:00</time>
      </trkpt>
      <trkpt lat="43.63975" lon="6.78266">
        <ele>434</ele>
        <time>2020-06-03T13:44:55+02:00</time>
      </trkpt>
      <trkpt lat="43.63974" lon="6.78278">
        <ele>434</ele>
        <time>2020-06-03T13:45:03+02:00</time>
      </trkpt>
      <trkpt lat="43.63973" lon="6.78291">
        <ele>434</ele>
        <time>2020-06-03T13:45:13+02:00</time>
      </trkpt>
      <trkpt lat="43.63971" lon="6.78304">
        <ele>434</ele>
        <time>2020-06-03T13:45:23+02:00</time>
      </trkpt>
      <trkpt lat="43.63966" lon="6.78314">
        <ele>434</ele>
        <time>2020-06-03T13:45:31+02:00</time>
      </trkpt>
      <trkpt lat="43.63958" lon="6.78322">
        <ele>434</ele>
        <time>2020-06-03T13:45:39+02:00</time>
      </trkpt>
      <trkpt lat="43.63949" lon="6.78328">
        <ele>434</ele>
        <time>2020-06-03T13:45:49+02:00</time>
      </trkpt>
      <trkpt lat="43.63938" lon="6.78328">
        <ele>434</ele>
        <time>2020-06-03T13:45:57+02:00</time>
      </trkpt>
    </trkseg>
  </trk>
</gpx>